Dades meteomassalio
Diari Summary for Gener 2, 2018 Units:  Both    English   Metric
« Previous Day
Next Day »
Diari Semanal Mensual Anual Personalitzat
  Maxima: Minima: Mijana:
Temperatura: TemperatureC °F /  -17.8 °C 5.0 °F /  -15 °C 12.4 °F /  -10.9 °C
Rosada: DewpointC °F /  -17.8 °C 1.3 °F /  -17.1 °C 6.4 °F /  -14.2 °C
Humitat: Humidity % 49 % 68 %
Velocitat del vent: WindSpeedKMH mph /  0 km/h - 24.4 mph /  39.3 km/h
Racha vent: WindSpeedGustKMH mph /  0 km/h - -
Vent:- - NW
Pressio: PressurehPa in /  0 hPa 1027.7 in /  34797.9 hPa -
Pluja: 0.0 in /  0 mm    
Historical Graphs
 
 
Tabular Data for Gener 2, 2018
Time Temperature Dew Point Pressure Wind Wind Speed Wind Gust Humidity Rainfall Rate (Hourly) solar Conditions
TemperatureC °F /  -17.8 °C DewpointC °F /  -17.8 °C PressurehPa in /  0 hPa Calm     Humidity % HourlyPrecipMM in /  0 mm SolarRadiationWatts/m^2 W/m2 Conditions
00:02 11.1 °F /  -11.6 °C 5.0 °F /  -15 °C 1030.0 in /  34875.8 hPa North 18.5 mph /  29.8 km/h 18.5 mph /  29.8 km/h 66 % 0.0 in /  0 mm 0.0 W/m2 CLR
00:07 11.1 °F /  -11.6 °C 5.0 °F /  -15 °C 1029.7 in /  34865.6 hPa North 18.5 mph /  29.8 km/h 18.5 mph /  29.8 km/h 66 % 0.0 in /  0 mm 0.0 W/m2 CLR
00:08 11.1 °F /  -11.6 °C 5.0 °F /  -15 °C 1029.7 in /  34865.6 hPa North 20.4 mph /  32.8 km/h 20.4 mph /  32.8 km/h 66 % 0.0 in /  0 mm 0.0 W/m2 CLR
00:13 11.7 °F /  -11.3 °C 5.5 °F /  -14.7 °C 1029.7 in /  34865.6 hPa North 16.7 mph /  26.9 km/h 16.7 mph /  26.9 km/h 66 % 0.0 in /  0 mm 0.0 W/m2 CLR
00:18 11.1 °F /  -11.6 °C 5.2 °F /  -14.9 °C 1029.7 in /  34865.6 hPa NNW 18.5 mph /  29.8 km/h 18.5 mph /  29.8 km/h 67 % 0.0 in /  0 mm 0.0 W/m2 CLR
00:23 11.1 °F /  -11.6 °C 5.4 °F /  -14.8 °C 1029.7 in /  34865.6 hPa North 16.1 mph /  25.9 km/h 16.1 mph /  25.9 km/h 68 % 0.0 in /  0 mm 0.0 W/m2 CLR
00:24 11.1 °F /  -11.6 °C 5.4 °F /  -14.8 °C 1029.7 in /  34865.6 hPa North 18.5 mph /  29.8 km/h 18.5 mph /  29.8 km/h 68 % 0.0 in /  0 mm 0.0 W/m2 CLR
00:27 10.6 °F /  -11.9 °C 4.9 °F /  -15.1 °C 1029.7 in /  34865.6 hPa North 16.7 mph /  26.9 km/h 16.7 mph /  26.9 km/h 68 % 0.0 in /  0 mm 0.0 W/m2 CLR
00:30 10.6 °F /  -11.9 °C 4.9 °F /  -15.1 °C 1029.7 in /  34865.6 hPa NNW 16.7 mph /  26.9 km/h 16.7 mph /  26.9 km/h 68 % 0.0 in /  0 mm 0.0 W/m2 CLR
00:35 10.6 °F /  -11.9 °C 5.3 °F /  -14.8 °C 1029.3 in /  34852.1 hPa North 18.5 mph /  29.8 km/h 18.5 mph /  29.8 km/h 70 % 0.0 in /  0 mm 0.0 W/m2 CLR
00:37 10.6 °F /  -11.9 °C 5.3 °F /  -14.8 °C 1029.3 in /  34852.1 hPa NNW 18.5 mph /  29.8 km/h 18.5 mph /  29.8 km/h 70 % 0.0 in /  0 mm 0.0 W/m2 CLR
00:40 10.0 °F /  -12.2 °C 5.0 °F /  -15 °C 1029.3 in /  34852.1 hPa North 18.5 mph /  29.8 km/h 18.5 mph /  29.8 km/h 71 % 0.0 in /  0 mm 0.0 W/m2 CLR
00:45 10.6 °F /  -11.9 °C 5.7 °F /  -14.6 °C 1029.7 in /  34865.6 hPa North 20.4 mph /  32.8 km/h 20.4 mph /  32.8 km/h 72 % 0.0 in /  0 mm 0.0 W/m2 CLR
00:47 10.6 °F /  -11.9 °C 5.7 °F /  -14.6 °C 1029.7 in /  34865.6 hPa NNE 25.9 mph /  41.7 km/h 25.9 mph /  41.7 km/h 72 % 0.0 in /  0 mm 0.0 W/m2 CLR
00:52 10.6 °F /  -11.9 °C 5.9 °F /  -14.5 °C 1029.7 in /  34865.6 hPa North 25.9 mph /  41.7 km/h 25.9 mph /  41.7 km/h 73 % 0.0 in /  0 mm 0.0 W/m2 CLR
00:57 10.6 °F /  -11.9 °C 5.9 °F /  -14.5 °C 1029.7 in /  34865.6 hPa North 20.4 mph /  32.8 km/h 20.4 mph /  32.8 km/h 73 % 0.0 in /  0 mm 0.0 W/m2 CLR
00:58 10.6 °F /  -11.9 °C 5.9 °F /  -14.5 °C 1029.7 in /  34865.6 hPa NNW 19.3 mph /  31.1 km/h 19.3 mph /  31.1 km/h 73 % 0.0 in /  0 mm 0.0 W/m2 CLR
01:00 10.6 °F /  -11.9 °C 5.9 °F /  -14.5 °C 1029.7 in /  34865.6 hPa North 27.8 mph /  44.7 km/h 27.8 mph /  44.7 km/h 73 % 0.0 in /  0 mm 0.0 W/m2 CLR
01:03 10.6 °F /  -11.9 °C 6.1 °F /  -14.4 °C 1029.7 in /  34865.6 hPa NNE 25.9 mph /  41.7 km/h 25.9 mph /  41.7 km/h 74 % 0.0 in /  0 mm 0.0 W/m2 CLR
01:07 10.6 °F /  -11.9 °C 6.3 °F /  -14.3 °C 1029.7 in /  34865.6 hPa North 24.1 mph /  38.8 km/h 24.1 mph /  38.8 km/h 75 % 0.0 in /  0 mm 0.0 W/m2 CLR
01:09 10.6 °F /  -11.9 °C 6.3 °F /  -14.3 °C 1029.7 in /  34865.6 hPa North 24.1 mph /  38.8 km/h 24.1 mph /  38.8 km/h 75 % 0.0 in /  0 mm 0.0 W/m2 CLR
01:13 10.6 °F /  -11.9 °C 6.3 °F /  -14.3 °C 1029.7 in /  34865.6 hPa North 24.1 mph /  38.8 km/h 24.1 mph /  38.8 km/h 75 % 0.0 in /  0 mm 0.0 W/m2 CLR
01:18 10.6 °F /  -11.9 °C 6.5 °F /  -14.2 °C 1029.7 in /  34865.6 hPa North 20.4 mph /  32.8 km/h 20.4 mph /  32.8 km/h 76 % 0.0 in /  0 mm 0.0 W/m2 CLR
01:19 10.6 °F /  -11.9 °C 6.5 °F /  -14.2 °C 1029.7 in /  34865.6 hPa North 20.4 mph /  32.8 km/h 20.4 mph /  32.8 km/h 76 % 0.0 in /  0 mm 0.0 W/m2 CLR
01:24 10.6 °F /  -11.9 °C 6.7 °F /  -14.1 °C 1029.7 in /  34865.6 hPa North 25.9 mph /  41.7 km/h 25.9 mph /  41.7 km/h 77 % 0.0 in /  0 mm 0.0 W/m2 CLR
01:26 10.6 °F /  -11.9 °C 6.7 °F /  -14.1 °C 1029.7 in /  34865.6 hPa North 24.1 mph /  38.8 km/h 24.1 mph /  38.8 km/h 77 % 0.0 in /  0 mm 0.0 W/m2 CLR
01:27 10.6 °F /  -11.9 °C 6.7 °F /  -14.1 °C 1029.7 in /  34865.6 hPa NNW 22.2 mph /  35.7 km/h 22.2 mph /  35.7 km/h 77 % 0.0 in /  0 mm 0.0 W/m2 CLR
01:32 10.6 °F /  -11.9 °C 6.7 °F /  -14.1 °C 1029.7 in /  34865.6 hPa NNW 27.8 mph /  44.7 km/h 27.8 mph /  44.7 km/h 77 % 0.0 in /  0 mm 0.0 W/m2 CLR
01:33 10.6 °F /  -11.9 °C 6.7 °F /  -14.1 °C 1029.7 in /  34865.6 hPa North 20.9 mph /  33.6 km/h 20.9 mph /  33.6 km/h 77 % 0.0 in /  0 mm 0.0 W/m2 CLR
01:37 10.6 °F /  -11.9 °C 6.7 °F /  -14.1 °C 1029.7 in /  34865.6 hPa North 20.4 mph /  32.8 km/h 20.4 mph /  32.8 km/h 77 % 0.0 in /  0 mm 0.0 W/m2 CLR
01:38 10.6 °F /  -11.9 °C 6.7 °F /  -14.1 °C 1029.7 in /  34865.6 hPa North 24.1 mph /  38.8 km/h 24.1 mph /  38.8 km/h 77 % 0.0 in /  0 mm 0.0 W/m2 CLR
01:43 10.6 °F /  -11.9 °C 6.7 °F /  -14.1 °C 1029.7 in /  34865.6 hPa North 18.5 mph /  29.8 km/h 18.5 mph /  29.8 km/h 77 % 0.0 in /  0 mm 0.0 W/m2 CLR
01:45 10.6 °F /  -11.9 °C 6.9 °F /  -13.9 °C 1029.7 in /  34865.6 hPa North 27.8 mph /  44.7 km/h 27.8 mph /  44.7 km/h 78 % 0.0 in /  0 mm 0.0 W/m2 CLR
01:47 10.6 °F /  -11.9 °C 6.9 °F /  -13.9 °C 1029.7 in /  34865.6 hPa North 25.9 mph /  41.7 km/h 25.9 mph /  41.7 km/h 78 % 0.0 in /  0 mm 0.0 W/m2 CLR
01:51 10.6 °F /  -11.9 °C 6.9 °F /  -13.9 °C 1029.7 in /  34865.6 hPa North 24.1 mph /  38.8 km/h 24.1 mph /  38.8 km/h 78 % 0.0 in /  0 mm 0.0 W/m2 CLR
01:56 10.6 °F /  -11.9 °C 7.1 °F /  -13.8 °C 1029.7 in /  34865.6 hPa North 33.3 mph /  53.6 km/h 33.3 mph /  53.6 km/h 79 % 0.0 in /  0 mm 0.0 W/m2 CLR
01:57 10.6 °F /  -11.9 °C 7.1 °F /  -13.8 °C 1029.7 in /  34865.6 hPa NNW 24.1 mph /  38.8 km/h 24.1 mph /  38.8 km/h 79 % 0.0 in /  0 mm 0.0 W/m2 CLR
02:02 10.6 °F /  -11.9 °C 7.1 °F /  -13.8 °C 1029.3 in /  34852.1 hPa North 25.9 mph /  41.7 km/h 25.9 mph /  41.7 km/h 79 % 0.0 in /  0 mm 0.0 W/m2 CLR
02:03 10.6 °F /  -11.9 °C 7.1 °F /  -13.8 °C 1029.3 in /  34852.1 hPa North 25.9 mph /  41.7 km/h 25.9 mph /  41.7 km/h 79 % 0.0 in /  0 mm 0.0 W/m2 CLR
02:05 10.6 °F /  -11.9 °C 7.1 °F /  -13.8 °C 1029.3 in /  34852.1 hPa North 20.4 mph /  32.8 km/h 21.6 mph /  34.8 km/h 79 % 0.0 in /  0 mm 0.0 W/m2 CLR
02:09 10.6 °F /  -11.9 °C 7.1 °F /  -13.8 °C 1029.3 in /  34852.1 hPa North 25.9 mph /  41.7 km/h 25.9 mph /  41.7 km/h 79 % 0.0 in /  0 mm 0.0 W/m2 CLR
02:11 10.6 °F /  -11.9 °C 7.1 °F /  -13.8 °C 1029.3 in /  34852.1 hPa North 22.2 mph /  35.7 km/h 22.2 mph /  35.7 km/h 79 % 0.0 in /  0 mm 0.0 W/m2 CLR
02:16 10.6 °F /  -11.9 °C 7.1 °F /  -13.8 °C 1029.3 in /  34852.1 hPa North 33.3 mph /  53.6 km/h 33.3 mph /  53.6 km/h 79 % 0.0 in /  0 mm 0.0 W/m2 CLR
02:21 10.6 °F /  -11.9 °C 6.9 °F /  -13.9 °C 1029.3 in /  34852.1 hPa North 33.3 mph /  53.6 km/h 33.3 mph /  53.6 km/h 78 % 0.0 in /  0 mm 0.0 W/m2 CLR
02:22 10.6 °F /  -11.9 °C 6.9 °F /  -13.9 °C 1029.3 in /  34852.1 hPa NNW 33.3 mph /  53.6 km/h 33.3 mph /  53.6 km/h 78 % 0.0 in /  0 mm 0.0 W/m2 CLR
02:23 10.6 °F /  -11.9 °C 6.9 °F /  -13.9 °C 1029.3 in /  34852.1 hPa North 29.6 mph /  47.6 km/h 29.6 mph /  47.6 km/h 78 % 0.0 in /  0 mm 0.0 W/m2 CLR
02:28 10.6 °F /  -11.9 °C 6.9 °F /  -13.9 °C 1029.3 in /  34852.1 hPa North 29.6 mph /  47.6 km/h 29.6 mph /  47.6 km/h 78 % 0.0 in /  0 mm 0.0 W/m2 CLR
02:33 10.6 °F /  -11.9 °C 6.9 °F /  -13.9 °C 1029.3 in /  34852.1 hPa NNW 33.3 mph /  53.6 km/h 33.3 mph /  53.6 km/h 78 % 0.0 in /  0 mm 0.0 W/m2 CLR
02:34 10.6 °F /  -11.9 °C 6.9 °F /  -13.9 °C 1029.3 in /  34852.1 hPa NNW 27.8 mph /  44.7 km/h 27.8 mph /  44.7 km/h 78 % 0.0 in /  0 mm 0.0 W/m2 CLR
02:38 10.6 °F /  -11.9 °C 6.9 °F /  -13.9 °C 1029.7 in /  34865.6 hPa North 31.5 mph /  50.7 km/h 31.5 mph /  50.7 km/h 78 % 0.0 in /  0 mm 0.0 W/m2 CLR
02:39 10.6 °F /  -11.9 °C 6.9 °F /  -13.9 °C 1029.7 in /  34865.6 hPa North 24.1 mph /  38.8 km/h 24.1 mph /  38.8 km/h 78 % 0.0 in /  0 mm 0.0 W/m2 CLR
02:44 10.6 °F /  -11.9 °C 6.9 °F /  -13.9 °C 1029.3 in /  34852.1 hPa North 27.8 mph /  44.7 km/h 27.8 mph /  44.7 km/h 78 % 0.0 in /  0 mm 0.0 W/m2 CLR
02:47 10.6 °F /  -11.9 °C 6.9 °F /  -13.9 °C 1029.3 in /  34852.1 hPa North 33.3 mph /  53.6 km/h 33.3 mph /  53.6 km/h 78 % 0.0 in /  0 mm 0.0 W/m2 CLR
02:48 10.6 °F /  -11.9 °C 6.9 °F /  -13.9 °C 1029.3 in /  34852.1 hPa North 33.3 mph /  53.6 km/h 33.3 mph /  53.6 km/h 78 % 0.0 in /  0 mm 0.0 W/m2 CLR
02:53 10.0 °F /  -12.2 °C 6.3 °F /  -14.3 °C 1029.7 in /  34865.6 hPa North 25.9 mph /  41.7 km/h 25.9 mph /  41.7 km/h 78 % 0.0 in /  0 mm 0.0 W/m2 CLR
02:58 10.0 °F /  -12.2 °C 6.3 °F /  -14.3 °C 1029.7 in /  34865.6 hPa NNW 33.3 mph /  53.6 km/h 33.3 mph /  53.6 km/h 78 % 0.0 in /  0 mm 0.0 W/m2 CLR
02:59 10.0 °F /  -12.2 °C 6.3 °F /  -14.3 °C 1029.7 in /  34865.6 hPa NNW 33.3 mph /  53.6 km/h 33.3 mph /  53.6 km/h 78 % 0.0 in /  0 mm 0.0 W/m2 CLR
03:04 10.0 °F /  -12.2 °C 6.3 °F /  -14.3 °C 1029.7 in /  34865.6 hPa North 29.6 mph /  47.6 km/h 29.6 mph /  47.6 km/h 78 % 0.0 in /  0 mm 0.0 W/m2 CLR
03:07 10.0 °F /  -12.2 °C 6.5 °F /  -14.2 °C 1029.3 in /  34852.1 hPa North 31.5 mph /  50.7 km/h 31.5 mph /  50.7 km/h 79 % 0.0 in /  0 mm 0.0 W/m2 CLR
03:09 10.0 °F /  -12.2 °C 6.3 °F /  -14.3 °C 1029.3 in /  34852.1 hPa North 27.8 mph /  44.7 km/h 27.8 mph /  44.7 km/h 78 % 0.0 in /  0 mm 0.0 W/m2 CLR
03:10 10.0 °F /  -12.2 °C 6.5 °F /  -14.2 °C 1029.3 in /  34852.1 hPa NNW 31.5 mph /  50.7 km/h 31.5 mph /  50.7 km/h 79 % 0.0 in /  0 mm 0.0 W/m2 CLR
03:13 10.0 °F /  -12.2 °C 6.5 °F /  -14.2 °C 1029.7 in /  34865.6 hPa NNW 31.5 mph /  50.7 km/h 31.5 mph /  50.7 km/h 79 % 0.0 in /  0 mm 0.0 W/m2 CLR
03:15 10.0 °F /  -12.2 °C 6.5 °F /  -14.2 °C 1029.7 in /  34865.6 hPa NNW 27.8 mph /  44.7 km/h 27.8 mph /  44.7 km/h 79 % 0.0 in /  0 mm 0.0 W/m2 CLR
03:20 10.0 °F /  -12.2 °C 6.5 °F /  -14.2 °C 1029.7 in /  34865.6 hPa North 25.9 mph /  41.7 km/h 25.9 mph /  41.7 km/h 79 % 0.0 in /  0 mm 0.0 W/m2 CLR
03:21 10.0 °F /  -12.2 °C 6.5 °F /  -14.2 °C 1029.7 in /  34865.6 hPa NNW 25.9 mph /  41.7 km/h 25.9 mph /  41.7 km/h 79 % 0.0 in /  0 mm 0.0 W/m2 CLR
03:23 10.0 °F /  -12.2 °C 6.7 °F /  -14.1 °C 1029.7 in /  34865.6 hPa NNW 27.8 mph /  44.7 km/h 27.8 mph /  44.7 km/h 80 % 0.0 in /  0 mm 0.0 W/m2 CLR
03:27 10.0 °F /  -12.2 °C 6.7 °F /  -14.1 °C 1029.7 in /  34865.6 hPa North 22.5 mph /  36.2 km/h 22.5 mph /  36.2 km/h 80 % 0.0 in /  0 mm 0.0 W/m2 CLR
03:30 10.0 °F /  -12.2 °C 6.7 °F /  -14.1 °C 1029.3 in /  34852.1 hPa NNW 31.5 mph /  50.7 km/h 31.5 mph /  50.7 km/h 80 % 0.0 in /  0 mm 0.0 W/m2 CLR
03:32 10.0 °F /  -12.2 °C 6.7 °F /  -14.1 °C 1029.3 in /  34852.1 hPa North 29.6 mph /  47.6 km/h 29.6 mph /  47.6 km/h 80 % 0.0 in /  0 mm 0.0 W/m2 CLR
03:37 10.0 °F /  -12.2 °C 6.7 °F /  -14.1 °C 1029.7 in /  34865.6 hPa North 29.6 mph /  47.6 km/h 29.6 mph /  47.6 km/h 80 % 0.0 in /  0 mm 0.0 W/m2 CLR
03:38 10.0 °F /  -12.2 °C 6.7 °F /  -14.1 °C 1029.7 in /  34865.6 hPa NNW 30.6 mph /  49.2 km/h 30.6 mph /  49.2 km/h 80 % 0.0 in /  0 mm 0.0 W/m2 CLR
03:43 10.0 °F /  -12.2 °C 6.9 °F /  -13.9 °C 1029.3 in /  34852.1 hPa North 29.6 mph /  47.6 km/h 29.6 mph /  47.6 km/h 81 % 0.0 in /  0 mm 0.0 W/m2 CLR
03:44 10.0 °F /  -12.2 °C 6.9 °F /  -13.9 °C 1029.3 in /  34852.1 hPa NNW 25.9 mph /  41.7 km/h 25.9 mph /  41.7 km/h 81 % 0.0 in /  0 mm 0.0 W/m2 CLR
03:50 10.0 °F /  -12.2 °C 6.9 °F /  -13.9 °C 1029.3 in /  34852.1 hPa North 27.8 mph /  44.7 km/h 27.8 mph /  44.7 km/h 81 % 0.0 in /  0 mm 0.0 W/m2 CLR
03:55 10.0 °F /  -12.2 °C 7.1 °F /  -13.8 °C 1029.3 in /  34852.1 hPa NNW 27.8 mph /  44.7 km/h 27.8 mph /  44.7 km/h 82 % 0.0 in /  0 mm 0.0 W/m2 CLR
04:00 10.0 °F /  -12.2 °C 7.1 °F /  -13.8 °C 1029.3 in /  34852.1 hPa NNW 27.4 mph /  44.1 km/h 27.4 mph /  44.1 km/h 82 % 0.0 in /  0 mm 0.0 W/m2 CLR
04:01 10.0 °F /  -12.2 °C 7.1 °F /  -13.8 °C 1029.3 in /  34852.1 hPa NNW 32.2 mph /  51.8 km/h 32.2 mph /  51.8 km/h 82 % 0.0 in /  0 mm 0.0 W/m2 CLR
04:06 10.0 °F /  -12.2 °C 7.1 °F /  -13.8 °C 1029.3 in /  34852.1 hPa NNW 33.3 mph /  53.6 km/h 33.3 mph /  53.6 km/h 82 % 0.0 in /  0 mm 0.0 W/m2 CLR
04:07 10.0 °F /  -12.2 °C 7.2 °F /  -13.8 °C 1029.3 in /  34852.1 hPa NNW 38.6 mph /  62.1 km/h 38.6 mph /  62.1 km/h 83 % 0.0 in /  0 mm 0.0 W/m2 CLR
04:16 10.0 °F /  -12.2 °C 7.2 °F /  -13.8 °C 1029.3 in /  34852.1 hPa NNW 24.1 mph /  38.8 km/h 24.1 mph /  38.8 km/h 83 % 0.0 in /  0 mm 0.0 W/m2 CLR
04:20 10.0 °F /  -12.2 °C 7.4 °F /  -13.7 °C 1029.3 in /  34852.1 hPa NNW 37.0 mph /  59.5 km/h 37.0 mph /  59.5 km/h 84 % 0.0 in /  0 mm 0.0 W/m2 CLR
04:26 10.0 °F /  -12.2 °C 7.4 °F /  -13.7 °C 1029.3 in /  34852.1 hPa North 31.5 mph /  50.7 km/h 31.5 mph /  50.7 km/h 84 % 0.0 in /  0 mm 0.0 W/m2 CLR
04:27 10.0 °F /  -12.2 °C 7.4 °F /  -13.7 °C 1029.3 in /  34852.1 hPa North 24.1 mph /  38.8 km/h 24.1 mph /  38.8 km/h 84 % 0.0 in /  0 mm 0.0 W/m2 CLR
04:31 10.0 °F /  -12.2 °C 7.4 °F /  -13.7 °C 1029.3 in /  34852.1 hPa NNW 31.5 mph /  50.7 km/h 31.5 mph /  50.7 km/h 84 % 0.0 in /  0 mm 0.0 W/m2 CLR
04:36 10.0 °F /  -12.2 °C 7.6 °F /  -13.6 °C 1029.3 in /  34852.1 hPa NNW 37.0 mph /  59.5 km/h 37.0 mph /  59.5 km/h 85 % 0.0 in /  0 mm 0.0 W/m2 CLR
04:42 10.0 °F /  -12.2 °C 7.4 °F /  -13.7 °C 1029.3 in /  34852.1 hPa North 25.9 mph /  41.7 km/h 25.9 mph /  41.7 km/h 84 % 0.0 in /  0 mm 0.0 W/m2 CLR
04:49 10.0 °F /  -12.2 °C 7.4 °F /  -13.7 °C 1029.0 in /  34841.9 hPa NNW 31.5 mph /  50.7 km/h 31.5 mph /  50.7 km/h 84 % 0.0 in /  0 mm 0.0 W/m2 CLR
04:54 10.0 °F /  -12.2 °C 7.4 °F /  -13.7 °C 1029.0 in /  34841.9 hPa NNW 18.5 mph /  29.8 km/h 18.5 mph /  29.8 km/h 84 % 0.0 in /  0 mm 0.0 W/m2 CLR
04:55 10.0 °F /  -12.2 °C 7.4 °F /  -13.7 °C 1029.0 in /  34841.9 hPa NNW 18.5 mph /  29.8 km/h 18.5 mph /  29.8 km/h 84 % 0.0 in /  0 mm 0.0 W/m2 CLR
05:00 10.0 °F /  -12.2 °C 7.4 °F /  -13.7 °C 1029.0 in /  34841.9 hPa NNW 29.6 mph /  47.6 km/h 29.6 mph /  47.6 km/h 84 % 0.0 in /  0 mm 0.0 W/m2 CLR
05:01 10.0 °F /  -12.2 °C 7.6 °F /  -13.6 °C 1029.0 in /  34841.9 hPa NNE 29.6 mph /  47.6 km/h 29.6 mph /  47.6 km/h 85 % 0.0 in /  0 mm 0.0 W/m2 CLR
05:02 10.0 °F /  -12.2 °C 7.4 °F /  -13.7 °C 1029.0 in /  34841.9 hPa North 27.8 mph /  44.7 km/h 27.8 mph /  44.7 km/h 84 % 0.0 in /  0 mm 0.0 W/m2 CLR
05:07 10.0 °F /  -12.2 °C 7.6 °F /  -13.6 °C 1029.0 in /  34841.9 hPa NW 25.9 mph /  41.7 km/h 25.9 mph /  41.7 km/h 85 % 0.0 in /  0 mm 0.0 W/m2 CLR
05:10 10.0 °F /  -12.2 °C 7.6 °F /  -13.6 °C 1029.3 in /  34852.1 hPa North 24.1 mph /  38.8 km/h 24.1 mph /  38.8 km/h 85 % 0.0 in /  0 mm 0.0 W/m2 CLR
05:12 10.0 °F /  -12.2 °C 7.6 °F /  -13.6 °C 1029.3 in /  34852.1 hPa NNW 29.0 mph /  46.7 km/h 29.0 mph /  46.7 km/h 85 % 0.0 in /  0 mm 0.0 W/m2 CLR
05:17 10.0 °F /  -12.2 °C 7.6 °F /  -13.6 °C 1029.3 in /  34852.1 hPa NNW 31.5 mph /  50.7 km/h 31.5 mph /  50.7 km/h 85 % 0.0 in /  0 mm 0.0 W/m2 CLR
05:18 10.0 °F /  -12.2 °C 7.6 °F /  -13.6 °C 1029.0 in /  34841.9 hPa NNW 29.6 mph /  47.6 km/h 29.6 mph /  47.6 km/h 85 % 0.0 in /  0 mm 0.0 W/m2 CLR
05:20 10.0 °F /  -12.2 °C 7.6 °F /  -13.6 °C 1029.3 in /  34852.1 hPa NNW 29.6 mph /  47.6 km/h 29.6 mph /  47.6 km/h 85 % 0.0 in /  0 mm 0.0 W/m2 CLR
05:24 10.0 °F /  -12.2 °C 7.6 °F /  -13.6 °C 1029.0 in /  34841.9 hPa North 24.1 mph /  38.8 km/h 24.1 mph /  38.8 km/h 85 % 0.0 in /  0 mm 0.0 W/m2 CLR
05:28 10.0 °F /  -12.2 °C 7.6 °F /  -13.6 °C 1029.0 in /  34841.9 hPa NW 25.9 mph /  41.7 km/h 25.9 mph /  41.7 km/h 85 % 0.0 in /  0 mm 0.0 W/m2 CLR
05:31 10.0 °F /  -12.2 °C 7.6 °F /  -13.6 °C 1029.0 in /  34841.9 hPa NW 20.4 mph /  32.8 km/h 20.4 mph /  32.8 km/h 85 % 0.0 in /  0 mm 0.0 W/m2 CLR
05:36 10.0 °F /  -12.2 °C 7.6 °F /  -13.6 °C 1029.0 in /  34841.9 hPa NNW 24.1 mph /  38.8 km/h 24.1 mph /  38.8 km/h 85 % 0.0 in /  0 mm 0.0 W/m2 CLR
05:41 10.0 °F /  -12.2 °C 7.6 °F /  -13.6 °C 1029.0 in /  34841.9 hPa NNW 27.8 mph /  44.7 km/h 27.8 mph /  44.7 km/h 85 % 0.0 in /  0 mm 0.0 W/m2 CLR
05:43 10.0 °F /  -12.2 °C 7.6 °F /  -13.6 °C 1029.0 in /  34841.9 hPa North 20.4 mph /  32.8 km/h 20.4 mph /  32.8 km/h 85 % 0.0 in /  0 mm 0.0 W/m2 CLR
05:48 10.0 °F /  -12.2 °C 7.6 °F /  -13.6 °C 1029.0 in /  34841.9 hPa North 20.4 mph /  32.8 km/h 20.4 mph /  32.8 km/h 85 % 0.0 in /  0 mm 0.0 W/m2 CLR
05:49 10.0 °F /  -12.2 °C 7.6 °F /  -13.6 °C 1029.0 in /  34841.9 hPa North 20.9 mph /  33.6 km/h 20.9 mph /  33.6 km/h 85 % 0.0 in /  0 mm 0.0 W/m2 CLR
05:54 10.0 °F /  -12.2 °C 7.6 °F /  -13.6 °C 1029.0 in /  34841.9 hPa NNW 24.1 mph /  38.8 km/h 24.1 mph /  38.8 km/h 85 % 0.0 in /  0 mm 0.0 W/m2 CLR
06:05 10.0 °F /  -12.2 °C 7.6 °F /  -13.6 °C 1029.0 in /  34841.9 hPa NNW 13.0 mph /  20.9 km/h 13.0 mph /  20.9 km/h 85 % 0.0 in /  0 mm 0.0 W/m2 CLR
06:06 10.0 °F /  -12.2 °C 7.8 °F /  -13.4 °C 1029.0 in /  34841.9 hPa NNW 16.1 mph /  25.9 km/h 16.1 mph /  25.9 km/h 86 % 0.0 in /  0 mm 0.0 W/m2 CLR
06:10 10.0 °F /  -12.2 °C 7.8 °F /  -13.4 °C 1029.0 in /  34841.9 hPa NNW 18.5 mph /  29.8 km/h 18.5 mph /  29.8 km/h 86 % 0.0 in /  0 mm 0.0 W/m2 CLR
06:11 10.0 °F /  -12.2 °C 7.8 °F /  -13.4 °C 1029.0 in /  34841.9 hPa NNW 18.5 mph /  29.8 km/h 18.5 mph /  29.8 km/h 86 % 0.0 in /  0 mm 0.0 W/m2 CLR
06:16 10.0 °F /  -12.2 °C 7.8 °F /  -13.4 °C 1029.3 in /  34852.1 hPa North 14.8 mph /  23.8 km/h 14.8 mph /  23.8 km/h 86 % 0.0 in /  0 mm 0.0 W/m2 CLR
06:21 10.0 °F /  -12.2 °C 7.8 °F /  -13.4 °C 1029.0 in /  34841.9 hPa NW 13.0 mph /  20.9 km/h 13.0 mph /  20.9 km/h 86 % 0.0 in /  0 mm 0.0 W/m2 CLR
06:22 10.0 °F /  -12.2 °C 7.8 °F /  -13.4 °C 1029.0 in /  34841.9 hPa NW 13.0 mph /  20.9 km/h 13.0 mph /  20.9 km/h 86 % 0.0 in /  0 mm 0.0 W/m2 CLR
06:28 10.0 °F /  -12.2 °C 7.8 °F /  -13.4 °C 1029.0 in /  34841.9 hPa NNW 18.5 mph /  29.8 km/h 18.5 mph /  29.8 km/h 86 % 0.0 in /  0 mm 0.0 W/m2 CLR
06:29 10.0 °F /  -12.2 °C 7.8 °F /  -13.4 °C 1029.0 in /  34841.9 hPa NNW 18.5 mph /  29.8 km/h 18.5 mph /  29.8 km/h 86 % 0.0 in /  0 mm 0.0 W/m2 CLR
06:32 10.0 °F /  -12.2 °C 7.8 °F /  -13.4 °C 1029.0 in /  34841.9 hPa NW 14.8 mph /  23.8 km/h 14.8 mph /  23.8 km/h 86 % 0.0 in /  0 mm 0.0 W/m2 CLR
06:35 10.0 °F /  -12.2 °C 7.8 °F /  -13.4 °C 1029.0 in /  34841.9 hPa NW 18.5 mph /  29.8 km/h 18.5 mph /  29.8 km/h 86 % 0.0 in /  0 mm 0.0 W/m2 CLR
06:40 10.0 °F /  -12.2 °C 7.8 °F /  -13.4 °C 1029.0 in /  34841.9 hPa NW 11.3 mph /  18.2 km/h 11.3 mph /  18.2 km/h 86 % 0.0 in /  0 mm 0.0 W/m2 CLR
06:41 10.0 °F /  -12.2 °C 7.8 °F /  -13.4 °C 1029.0 in /  34841.9 hPa NW 13.0 mph /  20.9 km/h 13.0 mph /  20.9 km/h 86 % 0.0 in /  0 mm 0.0 W/m2 CLR
06:42 10.0 °F /  -12.2 °C 7.8 °F /  -13.4 °C 1029.0 in /  34841.9 hPa NW 13.0 mph /  20.9 km/h 13.0 mph /  20.9 km/h 86 % 0.0 in /  0 mm 0.0 W/m2 CLR
06:46 9.4 °F /  -12.6 °C 7.2 °F /  -13.8 °C 1029.0 in /  34841.9 hPa NW 11.1 mph /  17.9 km/h 11.1 mph /  17.9 km/h 86 % 0.0 in /  0 mm 0.0 W/m2 CLR
06:53 9.4 °F /  -12.6 °C 7.2 °F /  -13.8 °C 1029.0 in /  34841.9 hPa WNW 11.1 mph /  17.9 km/h 11.1 mph /  17.9 km/h 86 % 0.0 in /  0 mm 0.0 W/m2 CLR
06:54 9.4 °F /  -12.6 °C 7.2 °F /  -13.8 °C 1029.0 in /  34841.9 hPa NW 9.3 mph /  15 km/h 9.3 mph /  15 km/h 86 % 0.0 in /  0 mm 0.0 W/m2 CLR
06:59 9.4 °F /  -12.6 °C 7.2 °F /  -13.8 °C 1029.0 in /  34841.9 hPa Calm     86 % 0.0 in /  0 mm 0.0 W/m2 CLR
07:04 8.9 °F /  -12.8 °C 6.7 °F /  -14.1 °C 1029.0 in /  34841.9 hPa Calm     86 % 0.0 in /  0 mm 0.0 W/m2 CLR
07:09 8.9 °F /  -12.8 °C 6.7 °F /  -14.1 °C 1029.0 in /  34841.9 hPa Calm     86 % 0.0 in /  0 mm 0.0 W/m2 CLR
07:10 8.9 °F /  -12.8 °C 6.7 °F /  -14.1 °C 1029.0 in /  34841.9 hPa Calm     86 % 0.0 in /  0 mm 0.0 W/m2 CLR
07:15 8.3 °F /  -13.2 °C 6.1 °F /  -14.4 °C 1029.3 in /  34852.1 hPa Calm     86 % 0.0 in /  0 mm 0.0 W/m2 CLR
07:16 8.3 °F /  -13.2 °C 6.1 °F /  -14.4 °C 1029.3 in /  34852.1 hPa Calm     86 % 0.0 in /  0 mm 0.0 W/m2 CLR
07:21 8.3 °F /  -13.2 °C 6.1 °F /  -14.4 °C 1029.3 in /  34852.1 hPa Calm     86 % 0.0 in /  0 mm 0.0 W/m2 CLR
07:26 7.8 °F /  -13.4 °C 5.6 °F /  -14.7 °C 1029.3 in /  34852.1 hPa Calm     86 % 0.0 in /  0 mm 0.0 W/m2 CLR
07:31 7.2 °F /  -13.8 °C 5.1 °F /  -14.9 °C 1029.3 in /  34852.1 hPa Calm     86 % 0.0 in /  0 mm 0.0 W/m2 CLR
07:34 7.2 °F /  -13.8 °C 5.2 °F /  -14.9 °C 1029.3 in /  34852.1 hPa Calm     87 % 0.0 in /  0 mm 0.0 W/m2 CLR
07:39 6.7 °F /  -14.1 °C 4.7 °F /  -15.2 °C 1029.3 in /  34852.1 hPa Calm     87 % 0.0 in /  0 mm 0.0 W/m2 CLR
07:41 6.7 °F /  -14.1 °C 4.7 °F /  -15.2 °C 1029.3 in /  34852.1 hPa Calm     87 % 0.0 in /  0 mm 0.0 W/m2 CLR
07:45 6.7 °F /  -14.1 °C 4.7 °F /  -15.2 °C 1029.7 in /  34865.6 hPa Calm     87 % 0.0 in /  0 mm 0.0 W/m2 CLR
07:50 6.7 °F /  -14.1 °C 4.5 °F /  -15.3 °C 1029.7 in /  34865.6 hPa Calm     86 % 0.0 in /  0 mm 0.0 W/m2 CLR
07:55 6.1 °F /  -14.4 °C 4.1 °F /  -15.5 °C 1029.7 in /  34865.6 hPa Calm     87 % 0.0 in /  0 mm 0.0 W/m2 CLR
08:00 6.1 °F /  -14.4 °C 4.3 °F /  -15.4 °C 1029.7 in /  34865.6 hPa Calm     88 % 0.0 in /  0 mm 0.0 W/m2 CLR
08:01 6.1 °F /  -14.4 °C 4.3 °F /  -15.4 °C 1029.7 in /  34865.6 hPa Calm     88 % 0.0 in /  0 mm 0.0 W/m2 CLR
08:06 6.1 °F /  -14.4 °C 4.4 °F /  -15.3 °C 1029.7 in /  34865.6 hPa Calm     89 % 0.0 in /  0 mm 0.0 W/m2 CLR
08:09 6.1 °F /  -14.4 °C 4.3 °F /  -15.4 °C 1029.7 in /  34865.6 hPa Calm     88 % 0.0 in /  0 mm 0.0 W/m2 CLR
08:13 6.1 °F /  -14.4 °C 4.4 °F /  -15.3 °C 1029.7 in /  34865.6 hPa Calm     89 % 0.0 in /  0 mm 0.0 W/m2 CLR
08:15 5.6 °F /  -14.7 °C 3.9 °F /  -15.6 °C 1029.7 in /  34865.6 hPa Calm     89 % 0.0 in /  0 mm 0.0 W/m2 OVC
08:19 5.6 °F /  -14.7 °C 3.7 °F /  -15.7 °C 1029.7 in /  34865.6 hPa Calm     88 % 0.0 in /  0 mm 0.0 W/m2 OVC
08:24 5.6 °F /  -14.7 °C 3.7 °F /  -15.7 °C 1029.7 in /  34865.6 hPa Calm     88 % 0.0 in /  0 mm 0.0 W/m2 OVC
08:25 5.6 °F /  -14.7 °C 3.7 °F /  -15.7 °C 1029.7 in /  34865.6 hPa Calm     88 % 0.0 in /  0 mm 0.0 W/m2 OVC
08:30 5.6 °F /  -14.7 °C 3.9 °F /  -15.6 °C 1029.7 in /  34865.6 hPa Calm     89 % 0.0 in /  0 mm 0.0 W/m2 OVC
08:31 5.6 °F /  -14.7 °C 3.9 °F /  -15.6 °C 1029.7 in /  34865.6 hPa Calm     89 % 0.0 in /  0 mm 5.0 W/m2 OVC
08:36 5.6 °F /  -14.7 °C 3.9 °F /  -15.6 °C 1029.7 in /  34865.6 hPa Calm     89 % 0.0 in /  0 mm 5.0 W/m2 OVC
08:37 5.6 °F /  -14.7 °C 3.9 °F /  -15.6 °C 1029.7 in /  34865.6 hPa Calm     89 % 0.0 in /  0 mm 7.0 W/m2 BKN
08:42 5.6 °F /  -14.7 °C 3.6 °F /  -15.8 °C 1029.7 in /  34865.6 hPa Calm     87 % 0.0 in /  0 mm 9.0 W/m2 BKN
08:43 5.6 °F /  -14.7 °C 3.6 °F /  -15.8 °C 1029.7 in /  34865.6 hPa Calm     87 % 0.0 in /  0 mm 9.0 W/m2 BKN
08:48 5.0 °F /  -15 °C 2.7 °F /  -16.3 °C 1029.7 in /  34865.6 hPa NW 18.5 mph /  29.8 km/h 18.5 mph /  29.8 km/h 85 % 0.0 in /  0 mm 11.0 W/m2 BKN
08:50 5.0 °F /  -15 °C 2.3 °F /  -16.5 °C 1030.0 in /  34875.8 hPa NW 16.1 mph /  25.9 km/h 16.1 mph /  25.9 km/h 83 % 0.0 in /  0 mm 12.0 W/m2 BKN
08:55 5.0 °F /  -15 °C 1.8 °F /  -16.8 °C 1030.0 in /  34875.8 hPa NW 13.0 mph /  20.9 km/h 13.0 mph /  20.9 km/h 80 % 0.0 in /  0 mm 16.0 W/m2 BKN
09:00 5.0 °F /  -15 °C 1.7 °F /  -16.8 °C 1029.7 in /  34865.6 hPa NW 11.1 mph /  17.9 km/h 11.1 mph /  17.9 km/h 79 % 0.0 in /  0 mm 21.0 W/m2 BKN
09:01 5.0 °F /  -15 °C 1.7 °F /  -16.8 °C 1029.7 in /  34865.6 hPa Calm     79 % 0.0 in /  0 mm 21.0 W/m2 BKN
09:06 5.0 °F /  -15 °C 1.5 °F /  -16.9 °C 1029.7 in /  34865.6 hPa Calm     78 % 0.0 in /  0 mm 25.0 W/m2 BKN
09:07 5.0 °F /  -15 °C 1.5 °F /  -16.9 °C 1029.7 in /  34865.6 hPa NW 9.7 mph /  15.6 km/h 9.7 mph /  15.6 km/h 78 % 0.0 in /  0 mm 26.0 W/m2 BKN
09:08 5.0 °F /  -15 °C 1.3 °F /  -17.1 °C 1029.7 in /  34865.6 hPa WNW 9.3 mph /  15 km/h 9.3 mph /  15 km/h 77 % 0.0 in /  0 mm 26.0 W/m2 BKN
09:12 5.6 °F /  -14.7 °C 1.7 °F /  -16.8 °C 1029.7 in /  34865.6 hPa WNW 16.1 mph /  25.9 km/h 16.1 mph /  25.9 km/h 76 % 0.0 in /  0 mm 30.0 W/m2 BKN
09:15 6.1 °F /  -14.4 °C 2.0 °F /  -16.7 °C 1029.7 in /  34865.6 hPa NW 16.7 mph /  26.9 km/h 16.7 mph /  26.9 km/h 75 % 0.0 in /  0 mm 33.0 W/m2 BKN
09:18 6.1 °F /  -14.4 °C 2.0 °F /  -16.7 °C 1029.7 in /  34865.6 hPa NW 11.3 mph /  18.2 km/h 11.3 mph /  18.2 km/h 75 % 0.0 in /  0 mm 35.0 W/m2 BKN
09:23 7.2 °F /  -13.8 °C 2.9 °F /  -16.2 °C 1029.7 in /  34865.6 hPa NW 13.0 mph /  20.9 km/h 13.0 mph /  20.9 km/h 74 % 0.0 in /  0 mm 39.0 W/m2 BKN
09:26 7.8 °F /  -13.4 °C 3.4 °F /  -15.9 °C 1030.0 in /  34875.8 hPa NW 9.3 mph /  15 km/h 9.3 mph /  15 km/h 74 % 0.0 in /  0 mm 39.0 W/m2 BKN
09:29 7.8 °F /  -13.4 °C 3.4 °F /  -15.9 °C 1030.0 in /  34875.8 hPa NW 11.1 mph /  17.9 km/h 11.1 mph /  17.9 km/h 74 % 0.0 in /  0 mm 51.0 W/m2 BKN
09:31 7.8 °F /  -13.4 °C 3.2 °F /  -16 °C 1030.0 in /  34875.8 hPa WNW 11.1 mph /  17.9 km/h 11.1 mph /  17.9 km/h 73 % 0.0 in /  0 mm 58.0 W/m2 BKN
09:36 7.8 °F /  -13.4 °C 3.2 °F /  -16 °C 1030.0 in /  34875.8 hPa NNW 12.9 mph /  20.8 km/h 12.9 mph /  20.8 km/h 73 % 0.0 in /  0 mm 56.0 W/m2 SCT
09:38 7.8 °F /  -13.4 °C 3.2 °F /  -16 °C 1030.0 in /  34875.8 hPa NW 13.0 mph /  20.9 km/h 13.0 mph /  20.9 km/h 73 % 0.0 in /  0 mm 62.0 W/m2 SCT
09:41 7.8 °F /  -13.4 °C 3.1 °F /  -16.1 °C 1030.0 in /  34875.8 hPa NW 8.0 mph /  12.9 km/h 8.0 mph /  12.9 km/h 72 % 0.0 in /  0 mm 79.0 W/m2 FEW
09:46 7.8 °F /  -13.4 °C 3.1 °F /  -16.1 °C 1030.0 in /  34875.8 hPa Calm     72 % 0.0 in /  0 mm 69.0 W/m2 FEW
09:52 8.3 °F /  -13.2 °C 3.4 °F /  -15.9 °C 1030.0 in /  34875.8 hPa NW 9.3 mph /  15 km/h 9.3 mph /  15 km/h 71 % 0.0 in /  0 mm 132.0 W/m2 CLR
09:57 8.3 °F /  -13.2 °C 3.2 °F /  -16 °C 1030.0 in /  34875.8 hPa WNW 16.7 mph /  26.9 km/h 16.7 mph /  26.9 km/h 70 % 0.0 in /  0 mm 105.0 W/m2 CLR
09:58 8.3 °F /  -13.2 °C 3.2 °F /  -16 °C 1030.0 in /  34875.8 hPa NNW 14.5 mph /  23.3 km/h 14.5 mph /  23.3 km/h 70 % 0.0 in /  0 mm 105.0 W/m2 CLR
10:01 8.3 °F /  -13.2 °C 3.0 °F /  -16.1 °C 1030.0 in /  34875.8 hPa NNW 13.0 mph /  20.9 km/h 13.0 mph /  20.9 km/h 69 % 0.0 in /  0 mm 163.0 W/m2 CLR
10:03 8.3 °F /  -13.2 °C 3.0 °F /  -16.1 °C 1030.0 in /  34875.8 hPa NNW 22.2 mph /  35.7 km/h 22.2 mph /  35.7 km/h 69 % 0.0 in /  0 mm 165.0 W/m2 CLR
10:08 10.0 °F /  -12.2 °C 4.3 °F /  -15.4 °C 1030.4 in /  34889.3 hPa NNW 14.8 mph /  23.8 km/h 14.8 mph /  23.8 km/h 68 % 0.0 in /  0 mm 144.0 W/m2 CLR
10:13 10.6 °F /  -11.9 °C 4.7 °F /  -15.2 °C 1030.4 in /  34889.3 hPa NNW 16.7 mph /  26.9 km/h 16.7 mph /  26.9 km/h 67 % 0.0 in /  0 mm 137.0 W/m2 CLR
10:14 10.6 °F /  -11.9 °C 4.4 °F /  -15.3 °C 1030.4 in /  34889.3 hPa NW 18.5 mph /  29.8 km/h 18.5 mph /  29.8 km/h 66 % 0.0 in /  0 mm 144.0 W/m2 CLR
10:19 11.1 °F /  -11.6 °C 5.0 °F /  -15 °C 1030.4 in /  34889.3 hPa NNW 18.5 mph /  29.8 km/h 18.5 mph /  29.8 km/h 66 % 0.0 in /  0 mm 137.0 W/m2 CLR
10:20 11.1 °F /  -11.6 °C 5.0 °F /  -15 °C 1030.4 in /  34889.3 hPa North 19.3 mph /  31.1 km/h 19.3 mph /  31.1 km/h 66 % 0.0 in /  0 mm 192.0 W/m2 CLR
10:24 11.7 °F /  -11.3 °C 5.3 °F /  -14.8 °C 1030.4 in /  34889.3 hPa NW 22.2 mph /  35.7 km/h 22.2 mph /  35.7 km/h 65 % 0.0 in /  0 mm 229.0 W/m2 CLR
10:25 11.7 °F /  -11.3 °C 5.3 °F /  -14.8 °C 1030.4 in /  34889.3 hPa NW 18.5 mph /  29.8 km/h 18.5 mph /  29.8 km/h 65 % 0.0 in /  0 mm 221.0 W/m2 CLR
10:29 11.7 °F /  -11.3 °C 5.3 °F /  -14.8 °C 1030.4 in /  34889.3 hPa NW 22.2 mph /  35.7 km/h 22.2 mph /  35.7 km/h 65 % 0.0 in /  0 mm 214.0 W/m2 CLR
10:34 12.2 °F /  -11 °C 5.8 °F /  -14.6 °C 1030.7 in /  34899.5 hPa NW 18.5 mph /  29.8 km/h 18.5 mph /  29.8 km/h 65 % 0.0 in /  0 mm 216.0 W/m2 CLR
10:37 12.2 °F /  -11 °C 5.6 °F /  -14.7 °C 1030.7 in /  34899.5 hPa NW 18.5 mph /  29.8 km/h 18.5 mph /  29.8 km/h 64 % 0.0 in /  0 mm 195.0 W/m2 CLR
10:40 12.2 °F /  -11 °C 5.6 °F /  -14.7 °C 1030.4 in /  34889.3 hPa NNW 16.1 mph /  25.9 km/h 16.1 mph /  25.9 km/h 64 % 0.0 in /  0 mm 183.0 W/m2 CLR
10:44 12.2 °F /  -11 °C 5.6 °F /  -14.7 °C 1030.4 in /  34889.3 hPa North 16.7 mph /  26.9 km/h 16.7 mph /  26.9 km/h 64 % 0.0 in /  0 mm 216.0 W/m2 CLR
10:48 12.2 °F /  -11 °C 5.4 °F /  -14.8 °C 1030.4 in /  34889.3 hPa NNW 16.7 mph /  26.9 km/h 16.7 mph /  26.9 km/h 63 % 0.0 in /  0 mm 257.0 W/m2 CLR
10:51 12.2 °F /  -11 °C 5.4 °F /  -14.8 °C 1030.4 in /  34889.3 hPa North 18.5 mph /  29.8 km/h 18.5 mph /  29.8 km/h 63 % 0.0 in /  0 mm 248.0 W/m2 CLR
10:53 12.8 °F /  -10.7 °C 5.9 °F /  -14.5 °C 1030.4 in /  34889.3 hPa NW 18.5 mph /  29.8 km/h 18.5 mph /  29.8 km/h 63 % 0.0 in /  0 mm 257.0 W/m2 CLR
10:58 12.8 °F /  -10.7 °C 5.7 °F /  -14.6 °C 1030.4 in /  34889.3 hPa NW 27.8 mph /  44.7 km/h 27.8 mph /  44.7 km/h 62 % 0.0 in /  0 mm 218.0 W/m2 CLR
10:59 12.8 °F /  -10.7 °C 5.7 °F /  -14.6 °C 1030.4 in /  34889.3 hPa NW 25.9 mph /  41.7 km/h 25.9 mph /  41.7 km/h 62 % 0.0 in /  0 mm 295.0 W/m2 CLR
11:04 12.8 °F /  -10.7 °C 5.7 °F /  -14.6 °C 1030.4 in /  34889.3 hPa NW 22.2 mph /  35.7 km/h 22.2 mph /  35.7 km/h 62 % 0.0 in /  0 mm 316.0 W/m2 CLR
11:05 12.8 °F /  -10.7 °C 5.7 °F /  -14.6 °C 1030.4 in /  34889.3 hPa NW 27.8 mph /  44.7 km/h 27.8 mph /  44.7 km/h 62 % 0.0 in /  0 mm 329.0 W/m2 CLR
11:10 13.3 °F /  -10.4 °C 5.9 °F /  -14.5 °C 1030.4 in /  34889.3 hPa North 20.4 mph /  32.8 km/h 20.4 mph /  32.8 km/h 61 % 0.0 in /  0 mm 341.0 W/m2 CLR
11:11 13.3 °F /  -10.4 °C 5.9 °F /  -14.5 °C 1030.4 in /  34889.3 hPa NNW 22.5 mph /  36.2 km/h 23.7 mph /  38.1 km/h 61 % 0.0 in /  0 mm 336.0 W/m2 CLR
11:13 13.3 °F /  -10.4 °C 5.9 °F /  -14.5 °C 1030.4 in /  34889.3 hPa WNW 27.8 mph /  44.7 km/h 27.8 mph /  44.7 km/h 61 % 0.0 in /  0 mm 350.0 W/m2 CLR
11:17 13.3 °F /  -10.4 °C 5.7 °F /  -14.6 °C 1030.4 in /  34889.3 hPa North 29.6 mph /  47.6 km/h 29.6 mph /  47.6 km/h 60 % 0.0 in /  0 mm 360.0 W/m2 CLR
11:20 13.9 °F /  -10.1 °C 6.2 °F /  -14.3 °C 1030.0 in /  34875.8 hPa NNW 24.1 mph /  38.8 km/h 24.8 mph /  39.9 km/h 60 % 0.0 in /  0 mm 380.0 W/m2 CLR
11:22 13.9 °F /  -10.1 °C 6.2 °F /  -14.3 °C 1030.0 in /  34875.8 hPa NNW 37.0 mph /  59.5 km/h 37.0 mph /  59.5 km/h 60 % 0.0 in /  0 mm 399.0 W/m2 CLR
11:27 13.9 °F /  -10.1 °C 6.0 °F /  -14.4 °C 1030.0 in /  34875.8 hPa North 37.0 mph /  59.5 km/h 37.0 mph /  59.5 km/h 59 % 0.0 in /  0 mm 464.0 W/m2 CLR
11:28 13.9 °F /  -10.1 °C 6.0 °F /  -14.4 °C 1030.0 in /  34875.8 hPa NNW 33.3 mph /  53.6 km/h 33.3 mph /  53.6 km/h 59 % 0.0 in /  0 mm 480.0 W/m2 CLR
11:32 14.4 °F /  -9.8 °C 6.3 °F /  -14.3 °C 1030.0 in /  34875.8 hPa NW 31.5 mph /  50.7 km/h 31.5 mph /  50.7 km/h 58 % 0.0 in /  0 mm 464.0 W/m2 CLR
11:37 15.0 °F /  -9.4 °C 6.6 °F /  -14.1 °C 1030.0 in /  34875.8 hPa NNW 31.5 mph /  50.7 km/h 31.5 mph /  50.7 km/h 57 % 0.0 in /  0 mm 475.0 W/m2 CLR
11:39 15.0 °F /  -9.4 °C 6.6 °F /  -14.1 °C 1030.0 in /  34875.8 hPa NNW 30.6 mph /  49.2 km/h 30.6 mph /  49.2 km/h 57 % 0.0 in /  0 mm 497.0 W/m2 CLR
11:40 15.0 °F /  -9.4 °C 6.6 °F /  -14.1 °C 1030.0 in /  34875.8 hPa North 37.0 mph /  59.5 km/h 37.0 mph /  59.5 km/h 57 % 0.0 in /  0 mm 489.0 W/m2 CLR
11:45 15.0 °F /  -9.4 °C 6.3 °F /  -14.3 °C 1030.0 in /  34875.8 hPa NNW 37.0 mph /  59.5 km/h 37.0 mph /  59.5 km/h 56 % 0.0 in /  0 mm 406.0 W/m2 CLR
11:49 15.0 °F /  -9.4 °C 6.3 °F /  -14.3 °C 1030.0 in /  34875.8 hPa North 22.2 mph /  35.7 km/h 22.2 mph /  35.7 km/h 56 % 0.0 in /  0 mm 264.0 W/m2 CLR
11:51 15.0 °F /  -9.4 °C 6.3 °F /  -14.3 °C 1030.0 in /  34875.8 hPa NNW 33.3 mph /  53.6 km/h 33.3 mph /  53.6 km/h 56 % 0.0 in /  0 mm 329.0 W/m2 CLR
11:56 15.6 °F /  -9.1 °C 6.6 °F /  -14.1 °C 1029.7 in /  34865.6 hPa NW 35.2 mph /  56.6 km/h 35.2 mph /  56.6 km/h 55 % 0.0 in /  0 mm 369.0 W/m2 CLR
11:57 15.6 °F /  -9.1 °C 6.8 °F /  -14 °C 1030.0 in /  34875.8 hPa NW 35.2 mph /  56.6 km/h 35.2 mph /  56.6 km/h 56 % 0.0 in /  0 mm 362.0 W/m2 CLR
12:01 15.6 °F /  -9.1 °C 6.6 °F /  -14.1 °C 1030.0 in /  34875.8 hPa NW 31.5 mph /  50.7 km/h 31.5 mph /  50.7 km/h 55 % 0.0 in /  0 mm 378.0 W/m2 CLR
12:04 15.6 °F /  -9.1 °C 6.6 °F /  -14.1 °C 1030.0 in /  34875.8 hPa NW 31.5 mph /  50.7 km/h 31.5 mph /  50.7 km/h 55 % 0.0 in /  0 mm 475.0 W/m2 CLR
12:07 15.6 °F /  -9.1 °C 6.6 °F /  -14.1 °C 1029.7 in /  34865.6 hPa North 31.5 mph /  50.7 km/h 31.5 mph /  50.7 km/h 55 % 0.0 in /  0 mm 496.0 W/m2 CLR
12:10 16.1 °F /  -8.8 °C 6.8 °F /  -14 °C 1030.0 in /  34875.8 hPa NNW 31.5 mph /  50.7 km/h 31.5 mph /  50.7 km/h 54 % 0.0 in /  0 mm 501.0 W/m2 CLR
12:15 16.1 °F /  -8.8 °C 6.5 °F /  -14.2 °C 1030.0 in /  34875.8 hPa NNW 22.2 mph /  35.7 km/h 22.2 mph /  35.7 km/h 53 % 0.0 in /  0 mm 260.0 W/m2 CLR
12:16 16.1 °F /  -8.8 °C 6.8 °F /  -14 °C 1030.0 in /  34875.8 hPa NNW 27.4 mph /  44.1 km/h 27.4 mph /  44.1 km/h 54 % 0.0 in /  0 mm 311.0 W/m2 CLR
12:19 16.1 °F /  -8.8 °C 6.8 °F /  -14 °C 1029.7 in /  34865.6 hPa NNW 29.6 mph /  47.6 km/h 29.6 mph /  47.6 km/h 54 % 0.0 in /  0 mm 459.0 W/m2 CLR
12:21 16.1 °F /  -8.8 °C 6.5 °F /  -14.2 °C 1030.0 in /  34875.8 hPa NW 33.3 mph /  53.6 km/h 33.3 mph /  53.6 km/h 53 % 0.0 in /  0 mm 489.0 W/m2 CLR
12:24 16.1 °F /  -8.8 °C 6.5 °F /  -14.2 °C 1029.7 in /  34865.6 hPa NW 38.9 mph /  62.6 km/h 38.9 mph /  62.6 km/h 53 % 0.0 in /  0 mm 457.0 W/m2 CLR
12:26 16.1 °F /  -8.8 °C 6.5 °F /  -14.2 °C 1029.7 in /  34865.6 hPa NW 40.7 mph /  65.5 km/h 40.7 mph /  65.5 km/h 53 % 0.0 in /  0 mm 436.0 W/m2 CLR
12:35 16.1 °F /  -8.8 °C 6.5 °F /  -14.2 °C 1029.7 in /  34865.6 hPa NW 42.6 mph /  68.6 km/h 42.6 mph /  68.6 km/h 53 % 0.0 in /  0 mm 401.0 W/m2 CLR
12:37 16.7 °F /  -8.5 °C 7.1 °F /  -13.8 °C 1029.7 in /  34865.6 hPa North 42.6 mph /  68.6 km/h 42.6 mph /  68.6 km/h 53 % 0.0 in /  0 mm 461.0 W/m2 CLR
12:40 16.7 °F /  -8.5 °C 7.1 °F /  -13.8 °C 1029.7 in /  34865.6 hPa North 42.6 mph /  68.6 km/h 42.6 mph /  68.6 km/h 53 % 0.0 in /  0 mm 469.0 W/m2 CLR
12:43 16.7 °F /  -8.5 °C 7.1 °F /  -13.8 °C 1029.3 in /  34852.1 hPa North 37.0 mph /  59.5 km/h 37.0 mph /  59.5 km/h 53 % 0.0 in /  0 mm 418.0 W/m2 CLR
12:46 16.7 °F /  -8.5 °C 6.8 °F /  -14 °C 1029.3 in /  34852.1 hPa NNW 30.6 mph /  49.2 km/h 30.6 mph /  49.2 km/h 52 % 0.0 in /  0 mm 455.0 W/m2 CLR
12:48 16.7 °F /  -8.5 °C 6.8 °F /  -14 °C 1029.3 in /  34852.1 hPa NNW 37.0 mph /  59.5 km/h 37.0 mph /  59.5 km/h 52 % 0.0 in /  0 mm 459.0 W/m2 CLR
12:51 16.7 °F /  -8.5 °C 6.8 °F /  -14 °C 1029.3 in /  34852.1 hPa NW 42.6 mph /  68.6 km/h 42.6 mph /  68.6 km/h 52 % 0.0 in /  0 mm 459.0 W/m2 CLR
12:53 16.1 °F /  -8.8 °C 6.2 °F /  -14.3 °C 1029.3 in /  34852.1 hPa NNW 43.4 mph /  69.8 km/h 43.4 mph /  69.8 km/h 52 % 0.0 in /  0 mm 469.0 W/m2 CLR
12:57 16.7 °F /  -8.5 °C 6.8 °F /  -14 °C 1029.3 in /  34852.1 hPa North 33.3 mph /  53.6 km/h 33.3 mph /  53.6 km/h 52 % 0.0 in /  0 mm 461.0 W/m2 CLR
13:00 16.7 °F /  -8.5 °C 6.8 °F /  -14 °C 1029.3 in /  34852.1 hPa NNW 42.6 mph /  68.6 km/h 42.6 mph /  68.6 km/h 52 % 0.0 in /  0 mm 455.0 W/m2 CLR
13:05 16.7 °F /  -8.5 °C 6.8 °F /  -14 °C 1029.3 in /  34852.1 hPa NNW 38.9 mph /  62.6 km/h 38.9 mph /  62.6 km/h 52 % 0.0 in /  0 mm 367.0 W/m2 CLR
13:10 16.7 °F /  -8.5 °C 6.8 °F /  -14 °C 1029.3 in /  34852.1 hPa North 41.8 mph /  67.3 km/h 41.8 mph /  67.3 km/h 52 % 0.0 in /  0 mm 253.0 W/m2 CLR
13:11 17.2 °F /  -8.2 °C 7.3 °F /  -13.7 °C 1029.3 in /  34852.1 hPa NNW 46.3 mph /  74.5 km/h 46.3 mph /  74.5 km/h 52 % 0.0 in /  0 mm 223.0 W/m2 CLR
13:16 16.7 °F /  -8.5 °C 6.8 °F /  -14 °C 1029.0 in /  34841.9 hPa NNW 41.8 mph /  67.3 km/h 41.8 mph /  67.3 km/h 52 % 0.0 in /  0 mm 445.0 W/m2 CLR
13:21 16.7 °F /  -8.5 °C 6.8 °F /  -14 °C 1029.0 in /  34841.9 hPa North 32.2 mph /  51.8 km/h 32.2 mph /  51.8 km/h 52 % 0.0 in /  0 mm 418.0 W/m2 CLR
13:23 16.7 °F /  -8.5 °C 6.8 °F /  -14 °C 1029.0 in /  34841.9 hPa NW 31.5 mph /  50.7 km/h 31.5 mph /  50.7 km/h 52 % 0.0 in /  0 mm 418.0 W/m2 CLR
13:28 16.7 °F /  -8.5 °C 6.5 °F /  -14.2 °C 1028.7 in /  34831.8 hPa NNE 37.0 mph /  59.5 km/h 37.0 mph /  59.5 km/h 51 % 0.0 in /  0 mm 415.0 W/m2 CLR
13:34 17.2 °F /  -8.2 °C 7.3 °F /  -13.7 °C 1028.3 in /  34818.2 hPa NW 25.9 mph /  41.7 km/h 25.9 mph /  41.7 km/h 52 % 0.0 in /  0 mm 413.0 W/m2 CLR
13:39 17.2 °F /  -8.2 °C 7.0 °F /  -13.9 °C 1028.3 in /  34818.2 hPa NW 27.8 mph /  44.7 km/h 27.8 mph /  44.7 km/h 51 % 0.0 in /  0 mm 415.0 W/m2 CLR
13:40 17.2 °F /  -8.2 °C 7.0 °F /  -13.9 °C 1028.3 in /  34818.2 hPa NW 30.6 mph /  49.2 km/h 30.6 mph /  49.2 km/h 51 % 0.0 in /  0 mm 403.0 W/m2 CLR
13:46 17.2 °F /  -8.2 °C 7.0 °F /  -13.9 °C 1028.3 in /  34818.2 hPa NNW 33.3 mph /  53.6 km/h 33.3 mph /  53.6 km/h 51 % 0.0 in /  0 mm 408.0 W/m2 CLR
13:47 17.2 °F /  -8.2 °C 6.7 °F /  -14.1 °C 1028.3 in /  34818.2 hPa NNW 31.5 mph /  50.7 km/h 31.5 mph /  50.7 km/h 50 % 0.0 in /  0 mm 406.0 W/m2 CLR
13:51 17.2 °F /  -8.2 °C 7.0 °F /  -13.9 °C 1028.3 in /  34818.2 hPa NNW 33.3 mph /  53.6 km/h 33.3 mph /  53.6 km/h 51 % 0.0 in /  0 mm 404.0 W/m2 CLR
13:54 17.2 °F /  -8.2 °C 6.7 °F /  -14.1 °C 1028.3 in /  34818.2 hPa NW 31.5 mph /  50.7 km/h 31.5 mph /  50.7 km/h 50 % 0.0 in /  0 mm 373.0 W/m2 CLR
13:56 17.8 °F /  -7.9 °C 7.2 °F /  -13.8 °C 1028.7 in /  34831.8 hPa NW 35.2 mph /  56.6 km/h 35.2 mph /  56.6 km/h 50 % 0.0 in /  0 mm 390.0 W/m2 CLR
14:01 17.2 °F /  -8.2 °C 6.7 °F /  -14.1 °C 1028.3 in /  34818.2 hPa NNW 48.1 mph /  77.4 km/h 48.1 mph /  77.4 km/h 50 % 0.0 in /  0 mm 403.0 W/m2 CLR
14:05 17.2 °F /  -8.2 °C 6.7 °F /  -14.1 °C 1028.3 in /  34818.2 hPa NNW 44.4 mph /  71.5 km/h 44.4 mph /  71.5 km/h 50 % 0.0 in /  0 mm 397.0 W/m2 CLR
14:06 17.2 °F /  -8.2 °C 6.7 °F /  -14.1 °C 1028.3 in /  34818.2 hPa North 40.7 mph /  65.5 km/h 40.7 mph /  65.5 km/h 50 % 0.0 in /  0 mm 394.0 W/m2 CLR
14:10 17.8 °F /  -7.9 °C 7.2 °F /  -13.8 °C 1028.3 in /  34818.2 hPa NNW 44.4 mph /  71.5 km/h 44.4 mph /  71.5 km/h 50 % 0.0 in /  0 mm 392.0 W/m2 CLR
14:14 17.2 °F /  -8.2 °C 6.7 °F /  -14.1 °C 1028.3 in /  34818.2 hPa NNW 31.5 mph /  50.7 km/h 31.5 mph /  50.7 km/h 50 % 0.0 in /  0 mm 376.0 W/m2 CLR
14:20 17.8 °F /  -7.9 °C 6.9 °F /  -13.9 °C 1028.3 in /  34818.2 hPa North 44.4 mph /  71.5 km/h 44.4 mph /  71.5 km/h 49 % 0.0 in /  0 mm 399.0 W/m2 CLR
14:21 17.8 °F /  -7.9 °C 7.2 °F /  -13.8 °C 1028.0 in /  34808.1 hPa NNW 31.5 mph /  50.7 km/h 31.5 mph /  50.7 km/h 50 % 0.0 in /  0 mm 388.0 W/m2 CLR
14:25 17.8 °F /  -7.9 °C 6.9 °F /  -13.9 °C 1028.0 in /  34808.1 hPa North 38.6 mph /  62.1 km/h 38.6 mph /  62.1 km/h 49 % 0.0 in /  0 mm 374.0 W/m2 CLR
14:31 17.8 °F /  -7.9 °C 6.9 °F /  -13.9 °C 1028.0 in /  34808.1 hPa NW 37.0 mph /  59.5 km/h 37.0 mph /  59.5 km/h 49 % 0.0 in /  0 mm 172.0 W/m2 CLR
14:36 17.8 °F /  -7.9 °C 6.9 °F /  -13.9 °C 1028.3 in /  34818.2 hPa NW 38.9 mph /  62.6 km/h 38.9 mph /  62.6 km/h 49 % 0.0 in /  0 mm 323.0 W/m2 CLR
14:37 17.8 °F /  -7.9 °C 6.9 °F /  -13.9 °C 1028.0 in /  34808.1 hPa NNW 38.9 mph /  62.6 km/h 38.9 mph /  62.6 km/h 49 % 0.0 in /  0 mm 329.0 W/m2 CLR
14:42 17.8 °F /  -7.9 °C 7.2 °F /  -13.8 °C 1028.0 in /  34808.1 hPa North 30.6 mph /  49.2 km/h 30.6 mph /  49.2 km/h 50 % 0.0 in /  0 mm 353.0 W/m2 CLR
14:47 17.8 °F /  -7.9 °C 6.9 °F /  -13.9 °C 1028.0 in /  34808.1 hPa NNW 33.8 mph /  54.4 km/h 33.8 mph /  54.4 km/h 49 % 0.0 in /  0 mm 352.0 W/m2 CLR
14:48 17.8 °F /  -7.9 °C 6.9 °F /  -13.9 °C 1028.0 in /  34808.1 hPa North 38.9 mph /  62.6 km/h 38.9 mph /  62.6 km/h 49 % 0.0 in /  0 mm 355.0 W/m2 CLR
14:53 18.3 °F /  -7.6 °C 7.4 °F /  -13.7 °C 1028.0 in /  34808.1 hPa NNW 31.5 mph /  50.7 km/h 31.5 mph /  50.7 km/h 49 % 0.0 in /  0 mm 374.0 W/m2 CLR
14:58 18.3 °F /  -7.6 °C 7.4 °F /  -13.7 °C 1028.0 in /  34808.1 hPa North 35.2 mph /  56.6 km/h 35.2 mph /  56.6 km/h 49 % 0.0 in /  0 mm 385.0 W/m2 CLR
15:03 18.3 °F /  -7.6 °C 7.4 °F /  -13.7 °C 1028.0 in /  34808.1 hPa NW 38.9 mph /  62.6 km/h 38.9 mph /  62.6 km/h 49 % 0.0 in /  0 mm 339.0 W/m2 CLR
15:08 18.3 °F /  -7.6 °C 7.4 °F /  -13.7 °C 1028.0 in /  34808.1 hPa NNW 42.6 mph /  68.6 km/h 42.6 mph /  68.6 km/h 49 % 0.0 in /  0 mm 70.0 W/m2 CLR
15:10 17.8 °F /  -7.9 °C 6.9 °F /  -13.9 °C 1028.0 in /  34808.1 hPa North 42.6 mph /  68.6 km/h 42.6 mph /  68.6 km/h 49 % 0.0 in /  0 mm 65.0 W/m2 CLR
15:15 17.2 °F /  -8.2 °C 6.7 °F /  -14.1 °C 1027.7 in /  34797.9 hPa NW 35.2 mph /  56.6 km/h 35.2 mph /  56.6 km/h 50 % 0.0 in /  0 mm 69.0 W/m2 FEW
15:17 17.2 °F /  -8.2 °C 7.0 °F /  -13.9 °C 1027.7 in /  34797.9 hPa NNW 24.1 mph /  38.8 km/h 24.1 mph /  38.8 km/h 51 % 0.0 in /  0 mm 72.0 W/m2 FEW
15:19 17.2 °F /  -8.2 °C 7.0 °F /  -13.9 °C 1028.0 in /  34808.1 hPa NW 35.2 mph /  56.6 km/h 35.2 mph /  56.6 km/h 51 % 0.0 in /  0 mm 62.0 W/m2 FEW
15:22 16.7 °F /  -8.5 °C 6.5 °F /  -14.2 °C 1028.0 in /  34808.1 hPa NW 29.6 mph /  47.6 km/h 29.6 mph /  47.6 km/h 51 % 0.0 in /  0 mm 49.0 W/m2 SCT
15:25 16.7 °F /  -8.5 °C 6.8 °F /  -14 °C 1028.0 in /  34808.1 hPa NNW 27.4 mph /  44.1 km/h 27.4 mph /  44.1 km/h 52 % 0.0 in /  0 mm 58.0 W/m2 SCT
15:28 16.7 °F /  -8.5 °C 6.8 °F /  -14 °C 1028.0 in /  34808.1 hPa NNW 25.7 mph /  41.4 km/h 25.7 mph /  41.4 km/h 52 % 0.0 in /  0 mm 62.0 W/m2 SCT
15:33 16.7 °F /  -8.5 °C 6.8 °F /  -14 °C 1028.3 in /  34818.2 hPa NW 37.0 mph /  59.5 km/h 37.0 mph /  59.5 km/h 52 % 0.0 in /  0 mm 47.0 W/m2 SCT
15:34 16.7 °F /  -8.5 °C 6.8 °F /  -14 °C 1028.3 in /  34818.2 hPa NNW 42.6 mph /  68.6 km/h 42.6 mph /  68.6 km/h 52 % 0.0 in /  0 mm 49.0 W/m2 SCT
15:40 16.7 °F /  -8.5 °C 6.8 °F /  -14 °C 1028.3 in /  34818.2 hPa NNW 42.6 mph /  68.6 km/h 42.6 mph /  68.6 km/h 52 % 0.0 in /  0 mm 125.0 W/m2 SCT
15:45 16.7 °F /  -8.5 °C 6.8 °F /  -14 °C 1028.7 in /  34831.8 hPa WNW 46.3 mph /  74.5 km/h 46.3 mph /  74.5 km/h 52 % 0.0 in /  0 mm 91.0 W/m2 FEW
15:46 16.7 °F /  -8.5 °C 7.1 °F /  -13.8 °C 1028.7 in /  34831.8 hPa NNW 45.1 mph /  72.6 km/h 45.1 mph /  72.6 km/h 53 % 0.0 in /  0 mm 93.0 W/m2 CLR
15:48 16.7 °F /  -8.5 °C 7.1 °F /  -13.8 °C 1028.7 in /  34831.8 hPa NNW 40.7 mph /  65.5 km/h 40.7 mph /  65.5 km/h 53 % 0.0 in /  0 mm 84.0 W/m2 CLR
15:52 16.7 °F /  -8.5 °C 7.1 °F /  -13.8 °C 1028.7 in /  34831.8 hPa NNW 46.3 mph /  74.5 km/h 46.3 mph /  74.5 km/h 53 % 0.0 in /  0 mm 114.0 W/m2 CLR
15:55 17.2 °F /  -8.2 °C 7.6 °F /  -13.6 °C 1028.7 in /  34831.8 hPa North 44.4 mph /  71.5 km/h 44.4 mph /  71.5 km/h 53 % 0.0 in /  0 mm 107.0 W/m2 CLR
15:57 17.2 °F /  -8.2 °C 7.6 °F /  -13.6 °C 1028.7 in /  34831.8 hPa NNW 51.8 mph /  83.4 km/h 51.8 mph /  83.4 km/h 53 % 0.0 in /  0 mm 98.0 W/m2 CLR
16:01 16.7 °F /  -8.5 °C 7.1 °F /  -13.8 °C 1028.7 in /  34831.8 hPa North 45.1 mph /  72.6 km/h 45.1 mph /  72.6 km/h 53 % 0.0 in /  0 mm 113.0 W/m2 CLR
16:02 16.7 °F /  -8.5 °C 7.1 °F /  -13.8 °C 1028.7 in /  34831.8 hPa NNW 44.4 mph /  71.5 km/h 44.4 mph /  71.5 km/h 53 % 0.0 in /  0 mm 84.0 W/m2 CLR
16:07 16.7 °F /  -8.5 °C 7.1 °F /  -13.8 °C 1028.3 in /  34818.2 hPa NW 42.6 mph /  68.6 km/h 42.6 mph /  68.6 km/h 53 % 0.0 in /  0 mm 56.0 W/m2 CLR
16:08 16.7 °F /  -8.5 °C 7.1 °F /  -13.8 °C 1028.3 in /  34818.2 hPa NNW 35.2 mph /  56.6 km/h 35.2 mph /  56.6 km/h 53 % 0.0 in /  0 mm 60.0 W/m2 FEW
16:12 16.7 °F /  -8.5 °C 7.1 °F /  -13.8 °C 1028.7 in /  34831.8 hPa NW 27.8 mph /  44.7 km/h 27.8 mph /  44.7 km/h 53 % 0.0 in /  0 mm 88.0 W/m2 FEW
16:14 16.7 °F /  -8.5 °C 7.1 °F /  -13.8 °C 1028.7 in /  34831.8 hPa NW 42.6 mph /  68.6 km/h 42.6 mph /  68.6 km/h 53 % 0.0 in /  0 mm 84.0 W/m2 FEW
16:19 16.7 °F /  -8.5 °C 7.3 °F /  -13.7 °C 1028.7 in /  34831.8 hPa NNW 40.7 mph /  65.5 km/h 40.7 mph /  65.5 km/h 54 % 0.0 in /  0 mm 90.0 W/m2 FEW
16:20 16.1 °F /  -8.8 °C 6.8 °F /  -14 °C 1028.7 in /  34831.8 hPa North 40.7 mph /  65.5 km/h 40.7 mph /  65.5 km/h 54 % 0.0 in /  0 mm 63.0 W/m2 FEW
16:25 16.1 °F /  -8.8 °C 6.8 °F /  -14 °C 1028.7 in /  34831.8 hPa North 38.9 mph /  62.6 km/h 38.9 mph /  62.6 km/h 54 % 0.0 in /  0 mm 90.0 W/m2 FEW
16:27 16.1 °F /  -8.8 °C 6.8 °F /  -14 °C 1028.7 in /  34831.8 hPa NNW 37.0 mph /  59.5 km/h 37.0 mph /  59.5 km/h 54 % 0.0 in /  0 mm 100.0 W/m2 FEW
16:28 16.1 °F /  -8.8 °C 6.8 °F /  -14 °C 1028.7 in /  34831.8 hPa NW 31.5 mph /  50.7 km/h 31.5 mph /  50.7 km/h 54 % 0.0 in /  0 mm 107.0 W/m2 FEW
16:33 16.1 °F /  -8.8 °C 6.8 °F /  -14 °C 1028.7 in /  34831.8 hPa NNW 25.9 mph /  41.7 km/h 25.9 mph /  41.7 km/h 54 % 0.0 in /  0 mm 121.0 W/m2 FEW
16:38 16.1 °F /  -8.8 °C 6.8 °F /  -14 °C 1028.7 in /  34831.8 hPa NNW 31.5 mph /  50.7 km/h 31.5 mph /  50.7 km/h 54 % 0.0 in /  0 mm 35.0 W/m2 CLR
16:44 16.1 °F /  -8.8 °C 7.1 °F /  -13.8 °C 1028.7 in /  34831.8 hPa NNW 32.2 mph /  51.8 km/h 32.2 mph /  51.8 km/h 55 % 0.0 in /  0 mm 86.0 W/m2 CLR
16:48 16.1 °F /  -8.8 °C 7.1 °F /  -13.8 °C 1028.3 in /  34818.2 hPa NW 33.3 mph /  53.6 km/h 33.3 mph /  53.6 km/h 55 % 0.0 in /  0 mm 74.0 W/m2 FEW
16:51 16.1 °F /  -8.8 °C 7.1 °F /  -13.8 °C 1028.3 in /  34818.2 hPa NW 33.3 mph /  53.6 km/h 33.3 mph /  53.6 km/h 55 % 0.0 in /  0 mm 65.0 W/m2 FEW
16:53 16.1 °F /  -8.8 °C 7.1 °F /  -13.8 °C 1028.3 in /  34818.2 hPa NW 22.2 mph /  35.7 km/h 22.2 mph /  35.7 km/h 55 % 0.0 in /  0 mm 53.0 W/m2 SCT
16:58 16.1 °F /  -8.8 °C 7.1 °F /  -13.8 °C 1028.3 in /  34818.2 hPa NNW 27.8 mph /  44.7 km/h 27.8 mph /  44.7 km/h 55 % 0.0 in /  0 mm 44.0 W/m2 BKN
16:59 16.1 °F /  -8.8 °C 7.1 °F /  -13.8 °C 1028.3 in /  34818.2 hPa NW 27.8 mph /  44.7 km/h 27.8 mph /  44.7 km/h 55 % 0.0 in /  0 mm 44.0 W/m2 BKN
17:04 16.1 °F /  -8.8 °C 7.1 °F /  -13.8 °C 1028.3 in /  34818.2 hPa NNW 31.5 mph /  50.7 km/h 31.5 mph /  50.7 km/h 55 % 0.0 in /  0 mm 33.0 W/m2 BKN
17:06 16.1 °F /  -8.8 °C 7.1 °F /  -13.8 °C 1028.3 in /  34818.2 hPa North 24.1 mph /  38.8 km/h 24.1 mph /  38.8 km/h 55 % 0.0 in /  0 mm 32.0 W/m2 BKN
17:09 15.6 °F /  -9.1 °C 6.8 °F /  -14 °C 1028.3 in /  34818.2 hPa NNW 32.2 mph /  51.8 km/h 32.2 mph /  51.8 km/h 56 % 0.0 in /  0 mm 32.0 W/m2 BKN
17:14 15.6 °F /  -9.1 °C 6.8 °F /  -14 °C 1028.0 in /  34808.1 hPa North 46.3 mph /  74.5 km/h 46.3 mph /  74.5 km/h 56 % 0.0 in /  0 mm 21.0 W/m2 BKN
17:15 15.6 °F /  -9.1 °C 6.8 °F /  -14 °C 1028.3 in /  34818.2 hPa NNW 46.3 mph /  74.5 km/h 46.3 mph /  74.5 km/h 56 % 0.0 in /  0 mm 21.0 W/m2 BKN
17:20 15.6 °F /  -9.1 °C 7.1 °F /  -13.8 °C 1028.0 in /  34808.1 hPa North 38.9 mph /  62.6 km/h 38.9 mph /  62.6 km/h 57 % 0.0 in /  0 mm 16.0 W/m2 BKN
17:25 15.6 °F /  -9.1 °C 7.1 °F /  -13.8 °C 1028.0 in /  34808.1 hPa NW 22.5 mph /  36.2 km/h 22.5 mph /  36.2 km/h 57 % 0.0 in /  0 mm 14.0 W/m2 BKN
17:26 15.6 °F /  -9.1 °C 7.1 °F /  -13.8 °C 1028.3 in /  34818.2 hPa North 24.1 mph /  38.8 km/h 24.1 mph /  38.8 km/h 57 % 0.0 in /  0 mm 12.0 W/m2 BKN
17:31 15.6 °F /  -9.1 °C 7.3 °F /  -13.7 °C 1028.3 in /  34818.2 hPa NW 24.1 mph /  38.8 km/h 24.1 mph /  38.8 km/h 58 % 0.0 in /  0 mm 11.0 W/m2 BKN
17:37 15.0 °F /  -9.4 °C 6.8 °F /  -14 °C 1028.3 in /  34818.2 hPa North 31.5 mph /  50.7 km/h 31.5 mph /  50.7 km/h 58 % 0.0 in /  0 mm 9.0 W/m2 BKN
17:42 15.0 °F /  -9.4 °C 7.1 °F /  -13.8 °C 1028.3 in /  34818.2 hPa North 24.1 mph /  38.8 km/h 24.1 mph /  38.8 km/h 59 % 0.0 in /  0 mm 5.0 W/m2 OVC
17:47 15.0 °F /  -9.4 °C 7.1 °F /  -13.8 °C 1028.3 in /  34818.2 hPa NW 27.8 mph /  44.7 km/h 27.8 mph /  44.7 km/h 59 % 0.0 in /  0 mm 0.0 W/m2 OVC
17:49 15.0 °F /  -9.4 °C 7.1 °F /  -13.8 °C 1028.3 in /  34818.2 hPa NW 20.4 mph /  32.8 km/h 20.4 mph /  32.8 km/h 59 % 0.0 in /  0 mm 0.0 W/m2 OVC
17:53 15.0 °F /  -9.4 °C 7.1 °F /  -13.8 °C 1028.3 in /  34818.2 hPa NNW 22.2 mph /  35.7 km/h 22.2 mph /  35.7 km/h 59 % 0.0 in /  0 mm 0.0 W/m2 OVC
17:54 15.0 °F /  -9.4 °C 7.1 °F /  -13.8 °C 1028.3 in /  34818.2 hPa NNW 27.8 mph /  44.7 km/h 27.8 mph /  44.7 km/h 59 % 0.0 in /  0 mm 0.0 W/m2 CLR
18:03 15.0 °F /  -9.4 °C 7.3 °F /  -13.7 °C 1028.0 in /  34808.1 hPa NW 31.5 mph /  50.7 km/h 31.5 mph /  50.7 km/h 60 % 0.0 in /  0 mm 0.0 W/m2 CLR
18:04 15.0 °F /  -9.4 °C 7.3 °F /  -13.7 °C 1028.0 in /  34808.1 hPa NNW 31.5 mph /  50.7 km/h 31.5 mph /  50.7 km/h 60 % 0.0 in /  0 mm 0.0 W/m2 CLR
18:05 15.0 °F /  -9.4 °C 7.3 °F /  -13.7 °C 1028.3 in /  34818.2 hPa NW 31.5 mph /  50.7 km/h 31.5 mph /  50.7 km/h 60 % 0.0 in /  0 mm 0.0 W/m2 CLR
18:09 14.4 °F /  -9.8 °C 6.8 °F /  -14 °C 1028.0 in /  34808.1 hPa NW 24.1 mph /  38.8 km/h 24.1 mph /  38.8 km/h 60 % 0.0 in /  0 mm 0.0 W/m2 CLR
18:14 14.4 °F /  -9.8 °C 7.0 °F /  -13.9 °C 1028.0 in /  34808.1 hPa NW 22.2 mph /  35.7 km/h 22.2 mph /  35.7 km/h 61 % 0.0 in /  0 mm 0.0 W/m2 CLR
18:15 14.4 °F /  -9.8 °C 7.0 °F /  -13.9 °C 1028.0 in /  34808.1 hPa NNW 22.2 mph /  35.7 km/h 22.2 mph /  35.7 km/h 61 % 0.0 in /  0 mm 0.0 W/m2 CLR
18:20 14.4 °F /  -9.8 °C 7.0 °F /  -13.9 °C 1028.0 in /  34808.1 hPa NNW 22.2 mph /  35.7 km/h 22.2 mph /  35.7 km/h 61 % 0.0 in /  0 mm 0.0 W/m2 CLR
18:21 14.4 °F /  -9.8 °C 7.0 °F /  -13.9 °C 1028.0 in /  34808.1 hPa NW 22.2 mph /  35.7 km/h 22.2 mph /  35.7 km/h 61 % 0.0 in /  0 mm 0.0 W/m2 CLR
18:22 14.4 °F /  -9.8 °C 7.0 °F /  -13.9 °C 1028.0 in /  34808.1 hPa NW 20.9 mph /  33.6 km/h 22.2 mph /  35.7 km/h 61 % 0.0 in /  0 mm 0.0 W/m2 CLR
18:26 14.4 °F /  -9.8 °C 7.0 °F /  -13.9 °C 1028.0 in /  34808.1 hPa NW 27.4 mph /  44.1 km/h 27.4 mph /  44.1 km/h 61 % 0.0 in /  0 mm 0.0 W/m2 CLR
18:28 14.4 °F /  -9.8 °C 7.0 °F /  -13.9 °C 1028.0 in /  34808.1 hPa NW 27.8 mph /  44.7 km/h 27.8 mph /  44.7 km/h 61 % 0.0 in /  0 mm 0.0 W/m2 CLR
18:31 13.9 °F /  -10.1 °C 6.5 °F /  -14.2 °C 1028.0 in /  34808.1 hPa NW 27.8 mph /  44.7 km/h 27.8 mph /  44.7 km/h 61 % 0.0 in /  0 mm 0.0 W/m2 CLR
18:36 13.9 °F /  -10.1 °C 6.5 °F /  -14.2 °C 1028.3 in /  34818.2 hPa NNW 25.9 mph /  41.7 km/h 25.9 mph /  41.7 km/h 61 % 0.0 in /  0 mm 0.0 W/m2 CLR
18:37 13.9 °F /  -10.1 °C 6.5 °F /  -14.2 °C 1028.3 in /  34818.2 hPa NNW 18.5 mph /  29.8 km/h 18.5 mph /  29.8 km/h 61 % 0.0 in /  0 mm 0.0 W/m2 CLR
18:42 13.9 °F /  -10.1 °C 6.7 °F /  -14.1 °C 1028.3 in /  34818.2 hPa NW 22.2 mph /  35.7 km/h 22.2 mph /  35.7 km/h 62 % 0.0 in /  0 mm 0.0 W/m2 CLR
18:47 13.9 °F /  -10.1 °C 6.7 °F /  -14.1 °C 1028.3 in /  34818.2 hPa NW 20.9 mph /  33.6 km/h 20.9 mph /  33.6 km/h 62 % 0.0 in /  0 mm 0.0 W/m2 CLR
18:53 13.9 °F /  -10.1 °C 6.7 °F /  -14.1 °C 1028.3 in /  34818.2 hPa North 20.9 mph /  33.6 km/h 20.9 mph /  33.6 km/h 62 % 0.0 in /  0 mm 0.0 W/m2 CLR
18:58 13.9 °F /  -10.1 °C 6.7 °F /  -14.1 °C 1028.3 in /  34818.2 hPa NW 22.2 mph /  35.7 km/h 22.2 mph /  35.7 km/h 62 % 0.0 in /  0 mm 0.0 W/m2 CLR
19:02 13.9 °F /  -10.1 °C 6.7 °F /  -14.1 °C 1028.7 in /  34831.8 hPa NW 18.5 mph /  29.8 km/h 18.5 mph /  29.8 km/h 62 % 0.0 in /  0 mm 0.0 W/m2 CLR
19:03 13.9 °F /  -10.1 °C 6.9 °F /  -13.9 °C 1028.7 in /  34831.8 hPa NW 24.1 mph /  38.8 km/h 24.1 mph /  38.8 km/h 63 % 0.0 in /  0 mm 0.0 W/m2 CLR
19:08 13.9 °F /  -10.1 °C 6.9 °F /  -13.9 °C 1028.7 in /  34831.8 hPa NW 27.8 mph /  44.7 km/h 27.8 mph /  44.7 km/h 63 % 0.0 in /  0 mm 0.0 W/m2 CLR
19:09 13.9 °F /  -10.1 °C 6.9 °F /  -13.9 °C 1028.7 in /  34831.8 hPa NNW 25.9 mph /  41.7 km/h 25.9 mph /  41.7 km/h 63 % 0.0 in /  0 mm 0.0 W/m2 CLR
19:11 13.9 °F /  -10.1 °C 6.9 °F /  -13.9 °C 1028.3 in /  34818.2 hPa NW 20.4 mph /  32.8 km/h 20.4 mph /  32.8 km/h 63 % 0.0 in /  0 mm 0.0 W/m2 CLR
19:15 13.9 °F /  -10.1 °C 6.9 °F /  -13.9 °C 1028.3 in /  34818.2 hPa NNW 22.2 mph /  35.7 km/h 22.2 mph /  35.7 km/h 63 % 0.0 in /  0 mm 0.0 W/m2 CLR
19:20 13.9 °F /  -10.1 °C 6.9 °F /  -13.9 °C 1028.7 in /  34831.8 hPa NNW 33.3 mph /  53.6 km/h 33.3 mph /  53.6 km/h 63 % 0.0 in /  0 mm 0.0 W/m2 CLR
19:21 13.9 °F /  -10.1 °C 6.9 °F /  -13.9 °C 1028.7 in /  34831.8 hPa NNW 33.3 mph /  53.6 km/h 33.3 mph /  53.6 km/h 63 % 0.0 in /  0 mm 0.0 W/m2 CLR
19:26 13.9 °F /  -10.1 °C 6.9 °F /  -13.9 °C 1028.7 in /  34831.8 hPa NNW 29.6 mph /  47.6 km/h 29.6 mph /  47.6 km/h 63 % 0.0 in /  0 mm 0.0 W/m2 CLR
19:28 13.9 °F /  -10.1 °C 6.9 °F /  -13.9 °C 1028.7 in /  34831.8 hPa NW 27.8 mph /  44.7 km/h 27.8 mph /  44.7 km/h 63 % 0.0 in /  0 mm 0.0 W/m2 CLR
19:31 13.9 °F /  -10.1 °C 6.9 °F /  -13.9 °C 1028.7 in /  34831.8 hPa NW 31.5 mph /  50.7 km/h 31.5 mph /  50.7 km/h 63 % 0.0 in /  0 mm 0.0 W/m2 CLR
19:33 13.9 °F /  -10.1 °C 6.9 °F /  -13.9 °C 1029.0 in /  34841.9 hPa NW 29.6 mph /  47.6 km/h 29.6 mph /  47.6 km/h 63 % 0.0 in /  0 mm 0.0 W/m2 CLR
19:38 13.9 °F /  -10.1 °C 6.9 °F /  -13.9 °C 1029.0 in /  34841.9 hPa NW 31.5 mph /  50.7 km/h 31.5 mph /  50.7 km/h 63 % 0.0 in /  0 mm 0.0 W/m2 CLR
19:40 13.9 °F /  -10.1 °C 6.9 °F /  -13.9 °C 1029.0 in /  34841.9 hPa NW 27.8 mph /  44.7 km/h 27.8 mph /  44.7 km/h 63 % 0.0 in /  0 mm 0.0 W/m2 CLR
19:45 13.9 °F /  -10.1 °C 7.2 °F /  -13.8 °C 1029.0 in /  34841.9 hPa NNW 20.4 mph /  32.8 km/h 20.4 mph /  32.8 km/h 64 % 0.0 in /  0 mm 0.0 W/m2 CLR
19:50 13.9 °F /  -10.1 °C 7.2 °F /  -13.8 °C 1029.0 in /  34841.9 hPa NW 24.1 mph /  38.8 km/h 24.1 mph /  38.8 km/h 64 % 0.0 in /  0 mm 0.0 W/m2 CLR
19:52 13.9 °F /  -10.1 °C 7.2 °F /  -13.8 °C 1029.0 in /  34841.9 hPa NW 18.5 mph /  29.8 km/h 18.5 mph /  29.8 km/h 64 % 0.0 in /  0 mm 0.0 W/m2 CLR
19:57 13.3 °F /  -10.4 °C 6.7 °F /  -14.1 °C 1029.3 in /  34852.1 hPa NNW 18.5 mph /  29.8 km/h 18.5 mph /  29.8 km/h 64 % 0.0 in /  0 mm 0.0 W/m2 CLR
19:58 13.3 °F /  -10.4 °C 6.7 °F /  -14.1 °C 1029.3 in /  34852.1 hPa NW 14.8 mph /  23.8 km/h 14.8 mph /  23.8 km/h 64 % 0.0 in /  0 mm 0.0 W/m2 CLR
19:59 13.3 °F /  -10.4 °C 6.7 °F /  -14.1 °C 1029.3 in /  34852.1 hPa NW 18.5 mph /  29.8 km/h 18.5 mph /  29.8 km/h 64 % 0.0 in /  0 mm 0.0 W/m2 CLR
20:04 13.3 °F /  -10.4 °C 6.9 °F /  -13.9 °C 1029.3 in /  34852.1 hPa NW 18.5 mph /  29.8 km/h 18.5 mph /  29.8 km/h 65 % 0.0 in /  0 mm 0.0 W/m2 CLR
20:08 13.3 °F /  -10.4 °C 6.9 °F /  -13.9 °C 1029.3 in /  34852.1 hPa NNW 22.2 mph /  35.7 km/h 22.2 mph /  35.7 km/h 65 % 0.0 in /  0 mm 0.0 W/m2 CLR
20:09 13.3 °F /  -10.4 °C 6.9 °F /  -13.9 °C 1029.3 in /  34852.1 hPa NW 22.2 mph /  35.7 km/h 22.2 mph /  35.7 km/h 65 % 0.0 in /  0 mm 0.0 W/m2 CLR
20:14 13.3 °F /  -10.4 °C 6.9 °F /  -13.9 °C 1029.3 in /  34852.1 hPa NW 20.4 mph /  32.8 km/h 20.4 mph /  32.8 km/h 65 % 0.0 in /  0 mm 0.0 W/m2 CLR
20:15 13.3 °F /  -10.4 °C 6.9 °F /  -13.9 °C 1029.3 in /  34852.1 hPa NNW 20.4 mph /  32.8 km/h 20.4 mph /  32.8 km/h 65 % 0.0 in /  0 mm 0.0 W/m2 CLR
20:16 13.3 °F /  -10.4 °C 6.9 °F /  -13.9 °C 1029.3 in /  34852.1 hPa NW 22.2 mph /  35.7 km/h 22.2 mph /  35.7 km/h 65 % 0.0 in /  0 mm 0.0 W/m2 CLR
20:21 13.3 °F /  -10.4 °C 6.9 °F /  -13.9 °C 1029.7 in /  34865.6 hPa NW 31.5 mph /  50.7 km/h 31.5 mph /  50.7 km/h 65 % 0.0 in /  0 mm 0.0 W/m2 CLR
20:26 13.3 °F /  -10.4 °C 6.9 °F /  -13.9 °C 1029.7 in /  34865.6 hPa NNW 24.1 mph /  38.8 km/h 24.1 mph /  38.8 km/h 65 % 0.0 in /  0 mm 0.0 W/m2 CLR
20:33 13.3 °F /  -10.4 °C 6.9 °F /  -13.9 °C 1029.7 in /  34865.6 hPa NNW 18.5 mph /  29.8 km/h 18.5 mph /  29.8 km/h 65 % 0.0 in /  0 mm 0.0 W/m2 CLR
20:35 13.3 °F /  -10.4 °C 6.9 °F /  -13.9 °C 1029.7 in /  34865.6 hPa NW 29.0 mph /  46.7 km/h 29.0 mph /  46.7 km/h 65 % 0.0 in /  0 mm 0.0 W/m2 CLR
20:39 13.9 °F /  -10.1 °C 7.4 °F /  -13.7 °C 1029.7 in /  34865.6 hPa NW 24.1 mph /  38.8 km/h 24.1 mph /  38.8 km/h 65 % 0.0 in /  0 mm 0.0 W/m2 CLR
20:43 13.9 °F /  -10.1 °C 7.6 °F /  -13.6 °C 1029.7 in /  34865.6 hPa NNW 33.8 mph /  54.4 km/h 33.8 mph /  54.4 km/h 66 % 0.0 in /  0 mm 0.0 W/m2 CLR
20:46 13.9 °F /  -10.1 °C 7.6 °F /  -13.6 °C 1029.7 in /  34865.6 hPa NNW 29.6 mph /  47.6 km/h 29.6 mph /  47.6 km/h 66 % 0.0 in /  0 mm 0.0 W/m2 CLR
20:51 13.9 °F /  -10.1 °C 7.6 °F /  -13.6 °C 1029.7 in /  34865.6 hPa NW 18.5 mph /  29.8 km/h 18.5 mph /  29.8 km/h 66 % 0.0 in /  0 mm 0.0 W/m2 CLR
20:52 13.9 °F /  -10.1 °C 7.4 °F /  -13.7 °C 1029.7 in /  34865.6 hPa WNW 24.1 mph /  38.8 km/h 24.1 mph /  38.8 km/h 65 % 0.0 in /  0 mm 0.0 W/m2 CLR
20:57 13.9 °F /  -10.1 °C 7.4 °F /  -13.7 °C 1029.7 in /  34865.6 hPa NW 22.2 mph /  35.7 km/h 22.2 mph /  35.7 km/h 65 % 0.0 in /  0 mm 0.0 W/m2 CLR
21:02 13.9 °F /  -10.1 °C 7.6 °F /  -13.6 °C 1030.0 in /  34875.8 hPa North 24.1 mph /  38.8 km/h 24.1 mph /  38.8 km/h 66 % 0.0 in /  0 mm 0.0 W/m2 CLR
21:06 13.3 °F /  -10.4 °C 7.1 °F /  -13.8 °C 1030.0 in /  34875.8 hPa NW 24.1 mph /  38.8 km/h 24.1 mph /  38.8 km/h 66 % 0.0 in /  0 mm 0.0 W/m2 CLR
21:07 13.3 °F /  -10.4 °C 7.1 °F /  -13.8 °C 1030.0 in /  34875.8 hPa NW 25.9 mph /  41.7 km/h 25.9 mph /  41.7 km/h 66 % 0.0 in /  0 mm 0.0 W/m2 CLR
21:13 13.9 °F /  -10.1 °C 7.6 °F /  -13.6 °C 1030.0 in /  34875.8 hPa NNW 27.8 mph /  44.7 km/h 27.8 mph /  44.7 km/h 66 % 0.0 in /  0 mm 0.0 W/m2 CLR
21:17 13.9 °F /  -10.1 °C 7.6 °F /  -13.6 °C 1030.0 in /  34875.8 hPa NW 24.1 mph /  38.8 km/h 24.1 mph /  38.8 km/h 66 % 0.0 in /  0 mm 0.0 W/m2 CLR
21:20 13.9 °F /  -10.1 °C 7.6 °F /  -13.6 °C 1030.0 in /  34875.8 hPa NNW 25.9 mph /  41.7 km/h 25.9 mph /  41.7 km/h 66 % 0.0 in /  0 mm 0.0 W/m2 CLR
21:23 13.9 °F /  -10.1 °C 7.6 °F /  -13.6 °C 1030.0 in /  34875.8 hPa NW 20.4 mph /  32.8 km/h 20.4 mph /  32.8 km/h 66 % 0.0 in /  0 mm 0.0 W/m2 CLR
21:26 13.3 °F /  -10.4 °C 7.1 °F /  -13.8 °C 1030.0 in /  34875.8 hPa NW 18.5 mph /  29.8 km/h 18.5 mph /  29.8 km/h 66 % 0.0 in /  0 mm 0.0 W/m2 CLR
21:28 13.9 °F /  -10.1 °C 7.6 °F /  -13.6 °C 1030.0 in /  34875.8 hPa NW 18.5 mph /  29.8 km/h 18.5 mph /  29.8 km/h 66 % 0.0 in /  0 mm 0.0 W/m2 CLR
21:33 13.9 °F /  -10.1 °C 7.6 °F /  -13.6 °C 1030.0 in /  34875.8 hPa NNW 24.1 mph /  38.8 km/h 24.1 mph /  38.8 km/h 66 % 0.0 in /  0 mm 0.0 W/m2 CLR
21:38 13.9 °F /  -10.1 °C 7.8 °F /  -13.4 °C 1030.0 in /  34875.8 hPa NNW 20.9 mph /  33.6 km/h 20.9 mph /  33.6 km/h 67 % 0.0 in /  0 mm 0.0 W/m2 CLR
21:41 13.3 °F /  -10.4 °C 7.3 °F /  -13.7 °C 1030.0 in /  34875.8 hPa NW 22.2 mph /  35.7 km/h 22.2 mph /  35.7 km/h 67 % 0.0 in /  0 mm 0.0 W/m2 CLR
21:46 13.3 °F /  -10.4 °C 7.3 °F /  -13.7 °C 1030.0 in /  34875.8 hPa NNW 24.1 mph /  38.8 km/h 24.1 mph /  38.8 km/h 67 % 0.0 in /  0 mm 0.0 W/m2 CLR
21:47 13.3 °F /  -10.4 °C 7.3 °F /  -13.7 °C 1030.0 in /  34875.8 hPa NW 24.1 mph /  38.8 km/h 24.1 mph /  38.8 km/h 67 % 0.0 in /  0 mm 0.0 W/m2 CLR
21:51 13.3 °F /  -10.4 °C 7.3 °F /  -13.7 °C 1030.0 in /  34875.8 hPa NNW 25.9 mph /  41.7 km/h 25.9 mph /  41.7 km/h 67 % 0.0 in /  0 mm 0.0 W/m2 CLR
21:52 13.3 °F /  -10.4 °C 7.3 °F /  -13.7 °C 1030.0 in /  34875.8 hPa NW 25.9 mph /  41.7 km/h 25.9 mph /  41.7 km/h 67 % 0.0 in /  0 mm 0.0 W/m2 CLR
21:57 13.3 °F /  -10.4 °C 7.3 °F /  -13.7 °C 1030.0 in /  34875.8 hPa NW 22.5 mph /  36.2 km/h 22.5 mph /  36.2 km/h 67 % 0.0 in /  0 mm 0.0 W/m2 CLR
21:59 13.3 °F /  -10.4 °C 7.3 °F /  -13.7 °C 1030.0 in /  34875.8 hPa WNW 29.6 mph /  47.6 km/h 29.6 mph /  47.6 km/h 67 % 0.0 in /  0 mm 0.0 W/m2 CLR
22:07 13.3 °F /  -10.4 °C 7.3 °F /  -13.7 °C 1030.0 in /  34875.8 hPa NNW 25.9 mph /  41.7 km/h 25.9 mph /  41.7 km/h 67 % 0.0 in /  0 mm 0.0 W/m2 CLR
22:12 13.3 °F /  -10.4 °C 7.3 °F /  -13.7 °C 1030.0 in /  34875.8 hPa NW 18.5 mph /  29.8 km/h 18.5 mph /  29.8 km/h 67 % 0.0 in /  0 mm 0.0 W/m2 CLR
22:17 13.3 °F /  -10.4 °C 7.6 °F /  -13.6 °C 1030.0 in /  34875.8 hPa WNW 27.8 mph /  44.7 km/h 27.8 mph /  44.7 km/h 68 % 0.0 in /  0 mm 0.0 W/m2 CLR
22:23 13.3 °F /  -10.4 °C 7.6 °F /  -13.6 °C 1030.0 in /  34875.8 hPa NW 24.1 mph /  38.8 km/h 24.1 mph /  38.8 km/h 68 % 0.0 in /  0 mm 0.0 W/m2 CLR
22:28 12.8 °F /  -10.7 °C 7.0 °F /  -13.9 °C 1030.0 in /  34875.8 hPa WNW 18.5 mph /  29.8 km/h 18.5 mph /  29.8 km/h 68 % 0.0 in /  0 mm 0.0 W/m2 CLR
22:29 12.8 °F /  -10.7 °C 7.0 °F /  -13.9 °C 1030.0 in /  34875.8 hPa NNW 18.5 mph /  29.8 km/h 18.5 mph /  29.8 km/h 68 % 0.0 in /  0 mm 0.0 W/m2 CLR
22:33 12.8 °F /  -10.7 °C 7.2 °F /  -13.8 °C 1030.0 in /  34875.8 hPa NW 18.5 mph /  29.8 km/h 18.5 mph /  29.8 km/h 69 % 0.0 in /  0 mm 0.0 W/m2 CLR
22:38 12.8 °F /  -10.7 °C 7.2 °F /  -13.8 °C 1030.0 in /  34875.8 hPa NW 27.8 mph /  44.7 km/h 27.8 mph /  44.7 km/h 69 % 0.0 in /  0 mm 0.0 W/m2 CLR
22:39 12.2 °F /  -11 °C 6.7 °F /  -14.1 °C 1030.0 in /  34875.8 hPa WNW 22.2 mph /  35.7 km/h 22.2 mph /  35.7 km/h 69 % 0.0 in /  0 mm 0.0 W/m2 CLR
22:44 12.2 °F /  -11 °C 6.7 °F /  -14.1 °C 1030.0 in /  34875.8 hPa NNW 22.2 mph /  35.7 km/h 22.2 mph /  35.7 km/h 69 % 0.0 in /  0 mm 0.0 W/m2 CLR
22:49 12.2 °F /  -11 °C 6.9 °F /  -13.9 °C 1030.0 in /  34875.8 hPa NW 29.6 mph /  47.6 km/h 29.6 mph /  47.6 km/h 70 % 0.0 in /  0 mm 0.0 W/m2 CLR
22:50 12.2 °F /  -11 °C 6.7 °F /  -14.1 °C 1030.0 in /  34875.8 hPa NW 22.2 mph /  35.7 km/h 22.2 mph /  35.7 km/h 69 % 0.0 in /  0 mm 0.0 W/m2 CLR
22:55 12.8 °F /  -10.7 °C 7.2 °F /  -13.8 °C 1030.0 in /  34875.8 hPa NW 29.6 mph /  47.6 km/h 29.6 mph /  47.6 km/h 69 % 0.0 in /  0 mm 0.0 W/m2 CLR
22:56 12.8 °F /  -10.7 °C 7.2 °F /  -13.8 °C 1030.0 in /  34875.8 hPa NW 29.6 mph /  47.6 km/h 29.6 mph /  47.6 km/h 69 % 0.0 in /  0 mm 0.0 W/m2 CLR
22:58 12.8 °F /  -10.7 °C 7.2 °F /  -13.8 °C 1030.0 in /  34875.8 hPa NW 25.9 mph /  41.7 km/h 25.9 mph /  41.7 km/h 69 % 0.0 in /  0 mm 0.0 W/m2 CLR
23:03 12.8 °F /  -10.7 °C 7.4 °F /  -13.7 °C 1030.0 in /  34875.8 hPa NW 22.2 mph /  35.7 km/h 22.2 mph /  35.7 km/h 70 % 0.0 in /  0 mm 0.0 W/m2 CLR
23:04 12.8 °F /  -10.7 °C 7.4 °F /  -13.7 °C 1030.0 in /  34875.8 hPa NNW 27.8 mph /  44.7 km/h 27.8 mph /  44.7 km/h 70 % 0.0 in /  0 mm 0.0 W/m2 CLR
23:08 12.8 °F /  -10.7 °C 7.4 °F /  -13.7 °C 1030.0 in /  34875.8 hPa NNW 29.6 mph /  47.6 km/h 29.6 mph /  47.6 km/h 70 % 0.0 in /  0 mm 0.0 W/m2 CLR
23:10 12.8 °F /  -10.7 °C 7.4 °F /  -13.7 °C 1030.0 in /  34875.8 hPa NW 24.1 mph /  38.8 km/h 24.1 mph /  38.8 km/h 70 % 0.0 in /  0 mm 0.0 W/m2 CLR
23:15 12.8 °F /  -10.7 °C 7.4 °F /  -13.7 °C 1030.4 in /  34889.3 hPa NW 18.5 mph /  29.8 km/h 18.5 mph /  29.8 km/h 70 % 0.0 in /  0 mm 0.0 W/m2 CLR
23:16 12.8 °F /  -10.7 °C 7.7 °F /  -13.5 °C 1030.4 in /  34889.3 hPa NW 18.5 mph /  29.8 km/h 18.5 mph /  29.8 km/h 71 % 0.0 in /  0 mm 0.0 W/m2 CLR
23:19 12.8 °F /  -10.7 °C 7.7 °F /  -13.5 °C 1030.4 in /  34889.3 hPa NW 18.5 mph /  29.8 km/h 18.5 mph /  29.8 km/h 71 % 0.0 in /  0 mm 0.0 W/m2 CLR
23:24 12.8 °F /  -10.7 °C 7.7 °F /  -13.5 °C 1030.4 in /  34889.3 hPa NW 18.5 mph /  29.8 km/h 18.5 mph /  29.8 km/h 71 % 0.0 in /  0 mm 0.0 W/m2 CLR
23:29 12.2 °F /  -11 °C 7.1 °F /  -13.8 °C 1030.4 in /  34889.3 hPa NW 14.8 mph /  23.8 km/h 14.8 mph /  23.8 km/h 71 % 0.0 in /  0 mm 0.0 W/m2 CLR
23:34 12.2 °F /  -11 °C 7.1 °F /  -13.8 °C 1030.4 in /  34889.3 hPa NW 18.5 mph /  29.8 km/h 18.5 mph /  29.8 km/h 71 % 0.0 in /  0 mm 0.0 W/m2 CLR
23:39 12.2 °F /  -11 °C 7.1 °F /  -13.8 °C 1030.4 in /  34889.3 hPa NW 20.4 mph /  32.8 km/h 20.4 mph /  32.8 km/h 71 % 0.0 in /  0 mm 0.0 W/m2 CLR
23:45 12.8 °F /  -10.7 °C 7.7 °F /  -13.5 °C 1030.4 in /  34889.3 hPa NW 18.5 mph /  29.8 km/h 18.5 mph /  29.8 km/h 71 % 0.0 in /  0 mm 0.0 W/m2 CLR
23:47 12.8 °F /  -10.7 °C 7.7 °F /  -13.5 °C 1030.4 in /  34889.3 hPa NW 20.4 mph /  32.8 km/h 20.4 mph /  32.8 km/h 71 % 0.0 in /  0 mm 0.0 W/m2 CLR
23:50 12.8 °F /  -10.7 °C 7.7 °F /  -13.5 °C 1030.4 in /  34889.3 hPa WNW 18.5 mph /  29.8 km/h 18.5 mph /  29.8 km/h 71 % 0.0 in /  0 mm 0.0 W/m2 CLR
23:55 12.8 °F /  -10.7 °C 7.7 °F /  -13.5 °C 1030.4 in /  34889.3 hPa WNW 16.7 mph /  26.9 km/h 16.7 mph /  26.9 km/h 71 % 0.0 in /  0 mm 0.0 W/m2 CLR
23:56 12.8 °F /  -10.7 °C 7.7 °F /  -13.5 °C 1030.4 in /  34889.3 hPa NW 13.0 mph /  20.9 km/h 13.0 mph /  20.9 km/h 71 % 0.0 in /  0 mm 0.0 W/m2 CLR
23:58 12.8 °F /  -10.7 °C 7.7 °F /  -13.5 °C 1030.4 in /  34889.3 hPa WNW 20.4 mph /  32.8 km/h 20.4 mph /  32.8 km/h 71 % 0.0 in /  0 mm 0.0 W/m2 CLR
Lo Temps de Massalio
Compliments of Weather Underground - 1.5 mb